Date StartTime U_cm/s V_cm/s W_cm/s Ustd_cm/s Vstd_cm/s Wstd_cm/s Uvar_(cm/s)^2 Vvar_(cm/s)^2 Wvar_(cm/s)^2 KE_(m/s)^2 TurbulentKE_(m/s)^2 HorizWindSpeed_cm/s FrictionSpeec_cm/s DragCoef SpeedOfSound_m/s SonicTemperature_C Pressure_mb 
08/24/2013  00:00:00      -28.938       -6.931       -7.380       24.920       14.472        7.363      621.013      209.441       54.216        0.091        0.044       29.756        7.117        0.057      342.906       18.644      858.490
08/24/2013  00:01:00       -4.242       -3.582       -4.782       12.493        6.885       10.441      156.085       47.405      109.024        0.018        0.016        5.552        7.308        1.733      343.149       19.058      858.480
08/24/2013  00:02:00       27.090        3.758       16.837       31.763       17.091       21.652     1008.917      292.115      468.825        0.140        0.088       27.349       13.582        0.247      342.569       18.069      858.473
08/24/2013  00:03:00       48.153       -3.888       18.493       17.994       17.707       19.152      323.784      313.555      366.804        0.184        0.050       48.309        7.231        0.022      342.557       18.049      858.461
08/24/2013  00:04:00       50.380       22.202        6.511       16.067       16.912       18.733      258.145      286.031      350.923        0.198        0.045       55.055        9.725        0.031      343.078       18.936      858.468
08/24/2013  00:05:00       20.600       14.533        4.281       11.339       15.126       11.771      128.576      228.809      138.566        0.057        0.025       25.211        4.962        0.039      342.883       18.605      858.462
08/24/2013  00:06:00       40.366      -15.392        0.676       19.309       15.734       14.000      372.831      247.560      195.988        0.134        0.041       43.201        6.609        0.023      342.812       18.484      858.484
08/24/2013  00:07:00       50.653      -14.630        5.676       23.337       24.864       20.672      544.604      618.223      427.349        0.220        0.080       52.723        7.200        0.019      342.490       17.936      858.488
08/24/2013  00:08:00       -6.957        5.677       -1.610       23.870        7.139       11.212      569.768       50.965      125.709        0.041        0.037        8.979       10.484        1.363      342.936       18.695      858.511
08/24/2013  00:09:00      -69.190       12.568       -4.006       19.290       18.124        9.793      372.091      328.492       95.898        0.288        0.040       70.323        1.885        0.001      342.689       18.274      858.543
08/24/2013  00:10:00      -67.450       12.762       -6.215       26.741       22.502       14.917      715.057      506.347      222.510        0.310        0.072       68.646       14.388        0.044      342.566       18.066      858.558
08/24/2013  00:11:00      -35.375       17.556       -5.925       20.879       20.737       13.497      435.945      430.007      182.169        0.132        0.052       39.492        8.190        0.043      342.705       18.303      858.559
08/24/2013  00:12:00      -27.811       13.260       -5.019        9.059       17.295       11.839       82.074      299.102      140.159        0.075        0.026       30.811        6.472        0.044      343.015       18.829      858.567
08/24/2013  00:13:00       29.326       -4.621        8.406       25.024       21.021       25.463      626.219      441.878      648.380        0.133        0.086       29.688        9.746        0.108      342.457       17.880      858.560
08/24/2013  00:14:00       12.079        3.084        3.218       15.635        7.536       14.678      244.443       56.793      215.430        0.034        0.026       12.467       11.364        0.831      342.907       18.646      858.553
08/24/2013  00:15:00        4.158       -0.745       -0.791        8.932        4.769        7.795       79.789       22.741       60.755        0.009        0.008        4.224        5.759        1.859      342.370       17.731      858.550
08/24/2013  00:16:00       -1.806       -0.304        8.563       16.459        9.461       12.870      270.902       89.517      165.649        0.030        0.026        1.831        9.969       29.634      342.473       17.906      858.568
08/24/2013  00:17:00      -27.900       -2.358        4.699        8.966        8.651        8.127       80.394       74.831       66.045        0.051        0.011       27.999        6.254        0.050      342.653       18.213      858.573
08/24/2013  00:18:00      -47.395      -12.244       -5.104       13.680        7.396        6.328      187.155       54.700       40.042        0.135        0.014       48.951        5.595        0.013      342.751       18.380      858.572
08/24/2013  00:19:00      -45.522       -8.952       -7.343        7.625       11.511        6.681       58.133      132.513       44.629        0.122        0.012       46.393        6.067        0.017      342.685       18.268      858.564
08/24/2013  00:20:00      -53.237        2.553       -6.823       10.885        5.801        6.480      118.484       33.657       41.996        0.154        0.010       53.298        3.582        0.005      342.714       18.316      858.575
08/24/2013  00:21:00      -58.980       -4.829       -6.683       31.087       14.481       14.220      966.430      209.701      202.218        0.246        0.069       59.178       16.362        0.076      342.659       18.222      858.571
08/24/2013  00:22:00      -75.598        6.523       -4.467       18.611       12.470        7.406      346.383      155.512       54.849        0.317        0.028       75.879        3.458        0.002      342.678       18.254      858.560
08/24/2013  00:23:00      -17.271       21.165       -3.725        9.268       11.590        5.265       85.888      134.336       27.723        0.050        0.012       27.317        1.724        0.004      342.829       18.513      858.558
08/24/2013  00:24:00       15.354        8.186        7.405       35.012       11.755       13.593     1225.829      138.177      184.779        0.095        0.077       17.400       11.788        0.459      342.848       18.545      858.540
08/24/2013  00:25:00       58.871      -17.298       17.794       19.591       14.057       22.478      383.789      197.592      505.266        0.258        0.054       61.360       11.142        0.033      342.379       17.748      858.523
08/24/2013  00:26:00       50.184       -9.024       19.657       25.173       13.944       19.953      633.672      194.431      398.117        0.211        0.061       50.989        8.677        0.029      342.398       17.780      858.518
08/24/2013  00:27:00       43.492       -6.880       16.247       18.064       15.815       16.101      326.295      250.123      259.245        0.152        0.042       44.032       10.278        0.054      342.403       17.787      858.521
08/24/2013  00:28:00       48.369      -26.399        1.406       16.767       20.101       13.934      281.149      404.034      194.166        0.196        0.044       55.104        5.536        0.010      342.812       18.483      858.524
08/24/2013  00:29:00      -20.677      -18.968       -0.594       44.716       16.242       13.090     1999.547      263.818      171.351        0.161        0.122       28.060        4.420        0.025      342.449       17.866      858.536
08/24/2013  00:30:00      -91.949      -22.321       -8.826       29.633       28.501       17.553      878.112      812.316      308.108        0.551        0.100       94.619       15.736        0.028      342.225       17.487      858.543
08/24/2013  00:31:00      -90.158      -65.674       -6.712       35.675       25.849       20.117     1272.681      668.159      404.676        0.742        0.117      111.542       16.568        0.022      342.114       17.298      858.550
08/24/2013  00:32:00      -65.919      -34.230        0.736       33.350       36.917       19.718     1112.231     1362.840      388.797        0.419        0.143       74.277       13.951        0.035      342.035       17.161      858.543
08/24/2013  00:33:00     -102.346      -42.596       -0.034       41.193       30.188       16.539     1696.848      911.312      273.531        0.758        0.144      110.857       16.679        0.023      342.119       17.306      858.550
08/24/2013  00:34:00     -153.360      -22.634       -8.399       37.957       35.364       20.624     1440.749     1250.585      425.364        1.361        0.156      155.022       19.301        0.016      342.096       17.266      858.533
08/24/2013  00:35:00     -152.336       -7.422       -6.233       53.307       46.973       29.118     2841.626     2206.508      847.834        1.460        0.295      152.516       32.424        0.045      342.054       17.196      858.526
08/24/2013  00:36:00     -154.487        6.527      -16.262       36.988       31.597       20.538     1368.123      998.379      421.797        1.348        0.139      154.625       20.356        0.017      342.098       17.269      858.532
08/24/2013  00:37:00     -119.834       13.514      -12.440       32.678       29.430       21.185     1067.821      866.120      448.797        0.854        0.119      120.593       14.347        0.014      342.146       17.352      858.520
08/24/2013  00:38:00      -61.667        2.534       -1.810       36.871       21.952       15.943     1359.443      481.904      254.174        0.295        0.105       61.719       17.086        0.077      342.155       17.367      858.512
08/24/2013  00:39:00      -35.738      -11.491        0.207       25.568       13.483       10.705      653.707      181.794      114.602        0.118        0.048       37.540       10.392        0.077      342.142       17.346      858.510
08/24/2013  00:40:00      -68.006       -7.530       -7.573       14.778       14.738        8.182      218.388      217.221       66.945        0.262        0.025       68.422        7.054        0.011      342.232       17.498      858.499
08/24/2013  00:41:00      -52.494       -6.572       -4.155       15.868       12.361        6.768      251.808      152.784       45.801        0.163        0.023       52.904        3.414        0.004      342.153       17.364      858.499
08/24/2013  00:42:00      -47.826      -17.185       -4.213       14.930       15.377        9.746      222.898      236.437       94.977        0.158        0.028       50.819        6.574        0.017      342.210       17.461      858.521
08/24/2013  00:43:00      -61.620      -19.549      -10.586       22.365       22.510       11.757      500.182      506.699      138.229        0.272        0.057       64.646        8.243        0.016      342.291       17.596      858.530
08/24/2013  00:44:00      -64.203      -13.312      -12.091       30.299       19.681       16.061      918.059      387.340      257.942        0.300        0.078       65.569       14.296        0.048      342.170       17.392      858.544
08/24/2013  00:45:00      -16.973        0.866       15.410       16.030       32.022       16.834      256.968     1025.429      283.368        0.105        0.078       16.995       15.714        0.855      342.017       17.133      858.561
08/24/2013  00:46:00      -61.555      -22.117       -2.312       16.320       19.477       12.311      266.356      379.344      151.554        0.254        0.040       65.407        4.507        0.005      342.093       17.262      858.560
08/24/2013  00:47:00      -64.137      -41.442       -7.341       16.545       14.777        9.997      273.726      218.347       99.945        0.324        0.030       76.361        5.205        0.005      342.125       17.317      858.562
08/24/2013  00:48:00      -74.554      -32.816       -0.890       16.193       18.824       13.760      262.218      354.346      189.331        0.372        0.040       81.457        8.293        0.010      342.087       17.250      858.576
08/24/2013  00:49:00      -90.186       -6.000       -4.075       20.122       24.942       17.731      404.911      622.089      314.390        0.476        0.067       90.385       14.957        0.027      342.000       17.104      858.577
08/24/2013  00:50:00      -49.867      -15.840       -5.093       20.301       20.697       13.950      412.143      428.372      194.615        0.190        0.052       52.322        5.922        0.013      341.948       17.017      858.575
08/24/2013  00:51:00      -64.095      -29.223       -9.423       15.604       16.146       17.303      243.488      260.690      299.399        0.293        0.040       70.443       12.066        0.029      342.199       17.442      858.576
08/24/2013  00:52:00      -92.228      -20.448      -10.150       27.638       18.778       14.439      763.859      352.617      208.484        0.518        0.066       94.468       11.977        0.016      342.197       17.438      858.571
08/24/2013  00:53:00      -88.066      -39.383      -13.456       12.768       15.397        9.185      163.024      237.052       84.360        0.499        0.024       96.471        4.361        0.002      342.088       17.255      858.577
08/24/2013  00:54:00     -100.971      -59.683      -15.402       19.765       16.849       12.967      390.651      283.882      168.145        0.742        0.042      117.292        3.002        0.001      342.012       17.126      858.571
08/24/2013  00:55:00     -126.743      -40.808      -18.177       26.410       23.503       12.329      697.492      552.374      151.994        0.973        0.070      133.151       12.780        0.009      341.948       17.016      858.564
08/24/2013  00:56:00     -105.465      -44.939      -18.914       22.856       22.843       15.797      522.395      521.823      249.548        0.740        0.065      114.640       13.587        0.014      341.941       17.001      858.568
08/24/2013  00:57:00     -126.141       -2.891      -16.293       21.171       20.677       14.476      448.200      427.530      209.541        0.864        0.054      126.174        9.626        0.006      342.072       17.226      858.569
08/24/2013  00:58:00      -96.563      -10.685      -13.601       23.534       29.917       20.188      553.859      895.004      407.550        0.574        0.093       97.152       13.361        0.019      342.057       17.200      858.562
08/24/2013  00:59:00      -74.000       -9.429      -10.407       25.653       19.004       14.374      658.053      361.142      206.600        0.345        0.061       74.599       13.492        0.033      341.971       17.052      858.571
08/24/2013  01:00:00      -73.946      -33.802      -14.501       19.336       19.972       13.867      373.882      398.865      192.288        0.389        0.048       81.305        7.252        0.008      341.972       17.057      858.566
08/24/2013  01:01:00      -80.836      -36.210      -21.297       21.250       17.205       14.160      451.555      296.000      200.500        0.462        0.047       88.575        8.720        0.010      341.987       17.083      858.563
08/24/2013  01:02:00      -95.698      -11.047      -18.855       21.637       15.963       10.958      468.162      254.804      120.069        0.524        0.042       96.334       10.341        0.012      341.938       16.997      858.571
08/24/2013  01:03:00      -75.055       -7.488      -13.223       14.393       17.034       13.901      207.146      290.157      193.224        0.328        0.035       75.427        4.231        0.003      341.979       17.067      858.582
08/24/2013  01:04:00      -87.431      -31.718      -14.108       20.919       26.236       14.812      437.607      688.348      219.383        0.510        0.067       93.007        8.276        0.008      341.927       16.979      858.586
08/24/2013  01:05:00      -95.916      -36.355      -18.881       26.439       21.079       14.441      699.033      444.336      208.553        0.611        0.068      102.575       12.781        0.016      341.868       16.880      858.612
08/24/2013  01:06:00     -101.833      -50.465      -20.717       28.918       31.559       17.946      836.232      995.942      322.058        0.775        0.108      113.652        9.321        0.007      341.793       16.753      858.621
08/24/2013  01:07:00      -94.135      -28.223      -20.388       36.580       35.835       21.785     1338.115     1284.143      474.599        0.658        0.155       98.275       17.796        0.033      341.743       16.668      858.626
08/24/2013  01:08:00      -62.327      -46.189      -16.873       25.448       30.796       21.082      647.626      948.406      444.464        0.417        0.102       77.576       14.947        0.037      341.718       16.627      858.641
08/24/2013  01:09:00      -83.304      -43.123      -13.568       29.104       27.094       24.787      847.059      734.084      614.383        0.559        0.110       93.804        7.452        0.006      341.691       16.582      858.636
08/24/2013  01:10:00     -119.543      -65.720      -20.211       24.250       32.080       19.552      588.058     1029.121      382.284        1.051        0.100      136.417        7.158        0.003      341.635       16.484      858.635
08/24/2013  01:11:00     -131.474      -51.679      -11.013       28.957       29.552       15.156      838.524      873.302      229.695        1.101        0.097      141.266       11.680        0.007      341.595       16.415      858.636
08/24/2013  01:12:00     -151.562      -38.638      -10.035       20.829       21.533       16.338      433.830      463.665      266.923        1.286        0.058      156.409       11.006        0.005      341.605       16.434      858.634
08/24/2013  01:13:00     -128.873      -52.796      -11.112       37.218       34.381       21.868     1385.211     1182.077      478.209        1.128        0.152      139.268       18.379        0.017      341.556       16.350      858.629
08/24/2013  01:14:00     -146.479      -30.026      -13.923       30.074       31.578       25.284      904.464      997.200      639.284        1.255        0.127      149.525       17.692        0.014      341.526       16.298      858.628
08/24/2013  01:15:00      -90.318      -42.766       -9.752       44.854       40.263       19.888     2011.919     1621.131      395.548        0.705        0.201       99.932       16.293        0.027      341.596       16.418      858.642
08/24/2013  01:16:00     -103.988      -33.573       -4.347       24.504       21.872       16.342      600.435      478.386      267.072        0.665        0.067      109.273       12.283        0.013      341.552       16.343      858.636
08/24/2013  01:17:00      -97.044      -44.273       -7.008       20.426       21.294       16.124      417.210      453.433      259.991        0.628        0.057      106.666       11.381        0.011      341.607       16.436      858.629
08/24/2013  01:18:00      -80.630      -23.033       -0.440       27.720       22.946       15.282      768.396      526.523      233.548        0.428        0.076       83.855       10.780        0.017      341.625       16.467      858.636
08/24/2013  01:19:00      -89.231      -21.196        2.499       40.191       25.383       16.052     1615.296      644.317      257.651        0.547        0.126       91.714       16.963        0.034      341.526       16.299      858.653
08/24/2013  01:20:00      -75.477      -33.810        1.490       25.042       25.834       17.736      627.098      667.375      314.553        0.423        0.080       82.704       13.426        0.026      341.590       16.409      858.651
08/24/2013  01:21:00      -78.775      -21.407       -6.600       17.768       14.377       10.029      315.701      206.712      100.581        0.367        0.031       81.632        6.013        0.005      341.757       16.690      858.648
08/24/2013  01:22:00      -85.983      -29.280       -7.828       10.216       11.562        6.779      104.370      133.679       45.951        0.430        0.014       90.831        4.461        0.002      341.908       16.946      858.653
08/24/2013  01:23:00     -108.745      -31.092       -8.431        9.046       12.410        7.038       81.822      154.008       49.538        0.657        0.014      113.102        4.561        0.002      341.820       16.797      858.663
08/24/2013  01:24:00     -101.642      -54.995      -12.363       25.068       16.227       14.345      628.427      263.309      205.788        0.730        0.055      115.566        4.923        0.002      341.697       16.589      858.666
08/24/2013  01:25:00     -137.883      -54.442      -13.465       13.470       19.198       11.914      181.430      368.555      141.950        1.142        0.035      148.242        5.143        0.001      341.555       16.348      858.673
08/24/2013  01:26:00     -119.600      -60.148        0.257       27.945       24.791       15.757      780.928      614.572      248.280        0.978        0.082      133.873       14.199        0.011      341.510       16.272      858.676
08/24/2013  01:27:00      -78.727      -32.775        5.621       41.384       28.962       21.109     1712.651      838.809      445.572        0.515        0.150       85.277       21.276        0.062      341.614       16.449      858.672
08/24/2013  01:28:00      -86.299      -21.331       -2.762       42.669       29.013       17.068     1820.635      841.749      291.308        0.543        0.148       88.896       20.266        0.052      341.547       16.335      858.666
08/24/2013  01:29:00     -119.400      -21.724       -0.505       33.346       22.270       17.693     1111.964      495.956      313.035        0.832        0.096      121.360       17.029        0.020      341.548       16.336      858.657
08/24/2013  01:30:00     -141.646      -32.898       -9.630       32.599       28.434       21.465     1062.701      808.481      460.736        1.178        0.117      145.417       17.982        0.015      341.433       16.141      858.656
08/24/2013  01:31:00     -142.400      -29.392       -7.395       43.813       34.091       24.204     1919.548     1162.197      585.853        1.243        0.183      145.401       25.391        0.030      341.404       16.093      858.649
08/24/2013  01:32:00      -97.142      -19.522      -10.719       47.036       21.018       19.017     2212.379      441.757      361.660        0.647        0.151       99.084       23.575        0.057      341.403       16.091      858.636
08/24/2013  01:33:00      -93.284      -36.099       -8.890       19.985       19.279       13.751      399.419      371.668      189.099        0.552        0.048      100.026       10.298        0.011      341.407       16.097      858.639
08/24/2013  01:34:00     -106.968      -37.799       -3.813       34.813       27.818       22.177     1211.974      773.823      491.829        0.768        0.124      113.450       20.539        0.033      341.417       16.116      858.636
08/24/2013  01:35:00     -121.106      -20.368       -9.683       17.298       17.221       15.577      299.215      296.556      242.642        0.801        0.042      122.807       11.374        0.009      341.459       16.185      858.632
08/24/2013  01:36:00      -52.069      -25.887       -4.113       30.141       18.874       10.573      908.489      356.223      111.796        0.239        0.069       58.149       10.704        0.034      341.379       16.051      858.644
08/24/2013  01:37:00      -35.425      -39.871        4.540       22.685       11.959       12.969      514.618      143.018      168.187        0.185        0.041       53.335       14.543        0.074      341.600       16.426      858.641
08/24/2013  01:38:00      -94.598      -22.289       -6.596       25.453       19.140       13.544      647.842      366.347      183.451        0.534        0.060       97.189       14.103        0.021      341.627       16.472      858.640
08/24/2013  01:39:00      -58.548      -34.987        4.445       26.790       20.371       16.290      717.686      414.997      265.353        0.303        0.070       68.205       17.506        0.066      341.586       16.402      858.631
08/24/2013  01:40:00      -96.109      -58.750       -6.991       23.199       14.858        9.260      538.216      220.755       85.756        0.679        0.042      112.644        9.379        0.007      341.928       16.983      858.609
08/24/2013  01:41:00     -112.822      -53.085       -2.991       19.811       16.193        9.483      392.470      262.220       89.926        0.815        0.037      124.687        7.131        0.003      341.698       16.591      858.599
08/24/2013  01:42:00     -110.363      -59.412        4.275       34.993       24.721       15.184     1224.536      611.127      230.552        0.890        0.103      125.339       10.274        0.007      341.614       16.449      858.594
08/24/2013  01:43:00     -112.333      -62.407        2.882       59.200       28.735       20.782     3504.649      825.691      431.902        1.064        0.238      128.504       19.275        0.022      341.587       16.402      858.592
08/24/2013  01:44:00      -88.943      -54.154        4.054       46.304       38.495       25.722     2144.090     1481.877      661.629        0.757        0.214      104.132       22.460        0.047      341.804       16.771      858.590
08/24/2013  01:45:00      -82.018      -56.052        8.037       47.901       33.904       27.105     2294.473     1149.504      734.685        0.706        0.209       99.342       25.592        0.066      341.663       16.533      858.587
08/24/2013  01:46:00     -132.334      -75.208       -0.188       50.930       35.559       27.081     2593.848     1264.455      733.397        1.388        0.230      152.212       25.602        0.028      342.005       17.111      858.583
08/24/2013  01:47:00     -123.821      -64.393       -2.066       42.016       35.675       21.465     1765.328     1272.691      460.732        1.149        0.175      139.564       21.017        0.023      341.969       17.051      858.581
08/24/2013  01:48:00     -102.237      -57.756        3.771       50.386       34.408       22.403     2538.725     1183.929      501.913        0.901        0.211      117.423       17.978        0.023      341.874       16.889      858.593
08/24/2013  01:49:00     -113.340      -45.693       -1.962       31.633       29.415       19.386     1000.650      865.249      375.807        0.859        0.112      122.204       15.870        0.017      341.901       16.936      858.598
08/24/2013  01:50:00     -102.387      -31.220        1.164       26.308       23.906       18.390      692.121      571.500      338.178        0.653        0.080      107.041       11.922        0.012      341.692       16.580      858.608
08/24/2013  01:51:00     -118.333      -43.085        1.975       27.527       25.366       16.602      757.757      643.453      275.626        0.877        0.084      125.933       12.553        0.010      341.652       16.514      858.618
08/24/2013  01:52:00     -120.275      -41.996       -6.825       25.666       23.893       17.943      658.728      570.884      321.938        0.891        0.078      127.396       14.437        0.013      341.705       16.604      858.623
08/24/2013  01:53:00     -114.853      -53.549       -0.572       33.440       25.102       19.908     1118.261      630.107      396.316        0.910        0.107      126.723       18.396        0.021      341.792       16.751      858.618
08/24/2013  01:54:00     -127.640      -33.773       -0.844       30.372       25.994       16.981      922.444      675.671      288.359        0.966        0.094      132.033       13.267        0.010      341.710       16.612      858.616
08/24/2013  01:55:00      -79.591       -7.609       -0.398       34.547       26.771       17.257     1193.470      716.686      297.810        0.430        0.110       79.954       17.744        0.049      341.511       16.273      858.604
08/24/2013  01:56:00     -110.836      -16.542       -7.893       26.637       21.616       16.776      709.505      467.237      281.435        0.704        0.073      112.063       10.315        0.008      341.524       16.295      858.601
08/24/2013  01:57:00     -114.345       -4.179       -4.642       39.756       22.000       16.199     1580.569      484.016      262.408        0.772        0.116      114.421       20.028        0.031      341.474       16.212      858.593
08/24/2013  01:58:00     -107.077      -12.392       -5.557       33.967       35.417       20.339     1153.750     1254.363      413.690        0.724        0.141      107.792       22.200        0.042      341.457       16.183      858.602
08/24/2013  01:59:00      -99.725        3.016      -10.387       37.342       29.649       18.889     1394.428      879.066      356.806        0.635        0.132       99.771       12.548        0.016      341.291       15.902      858.619
08/24/2013  02:00:00     -129.674        8.753      -15.600       33.871       47.322       24.092     1147.252     2239.400      580.413        1.055        0.198      129.969       14.774        0.013      341.295       15.909      858.632
08/24/2013  02:01:00      -56.604       -7.823        5.453       42.038       29.400       17.984     1767.196      864.335      323.441        0.312        0.148       57.142       16.690        0.085      341.288       15.897      858.636
08/24/2013  02:02:00      -81.047      -29.960       -6.843       16.618       24.648       15.217      276.146      607.528      231.557        0.431        0.056       86.407        8.635        0.010      341.267       15.860      858.634
08/24/2013  02:03:00      -81.479      -12.578       -8.540       25.358       26.558       21.428      643.038      705.303      459.156        0.434        0.090       82.445        9.937        0.015      341.197       15.743      858.638
08/24/2013  02:04:00      -84.396      -15.571      -11.271       19.241       26.592       19.239      370.215      707.114      370.148        0.447        0.072       85.821       11.298        0.017      341.258       15.846      858.619
08/24/2013  02:05:00     -107.657      -36.543       -8.296       16.629       24.565       14.440      276.524      603.434      208.528        0.704        0.054      113.690        6.185        0.003      341.271       15.868      858.603
08/24/2013  02:06:00     -130.567      -29.170       -8.297       27.862       19.542       18.509      776.276      381.880      342.586        0.973        0.075      133.786       15.208        0.013      341.154       15.670      858.597
08/24/2013  02:07:00      -99.400        0.033       -2.470       41.298       30.136       19.186     1705.538      908.191      368.100        0.643        0.149       99.400       18.242        0.034      341.054       15.500      858.590
08/24/2013  02:08:00      -37.770        2.875        9.288       31.096       23.068       20.281      966.959      532.114      411.319        0.172        0.096       37.879       13.444        0.126      340.946       15.317      858.586
08/24/2013  02:09:00     -103.610        1.680       -3.618       36.331       40.535       19.495     1319.933     1643.079      380.048        0.705        0.167      103.623       17.420        0.028      341.029       15.458      858.590
08/24/2013  02:10:00      -47.017      -24.225       -5.862       39.959       30.046       21.370     1596.754      902.789      456.656        0.289        0.148       52.891       20.962        0.157      341.027       15.454      858.575
08/24/2013  02:11:00        7.066       -5.495       -3.510       18.451       15.256       17.038      340.438      232.731      290.295        0.048        0.043        8.951       12.505        1.952      341.008       15.424      858.569
08/24/2013  02:12:00      -49.620       -9.559      -17.718       37.159       19.281       13.471     1380.814      371.758      181.461        0.240        0.097       50.532        7.183        0.020      341.017       15.438      858.574
08/24/2013  02:13:00      -85.250      -26.208       -9.280       29.878       27.555       17.617      892.681      759.251      310.361        0.500        0.098       89.188       11.815        0.018      340.946       15.316      858.569
08/24/2013  02:14:00      -78.292      -13.563       -7.564       29.839       25.492       16.589      890.347      649.848      275.204        0.409        0.091       79.458       12.270        0.024      340.911       15.259      858.560
08/24/2013  02:15:00     -111.164      -32.381       -0.334       30.450       24.707       19.965      927.209      610.430      398.607        0.767        0.097      115.784       15.065        0.017      340.926       15.284      858.573
08/24/2013  02:16:00      -77.480      -12.017       -0.754       49.159       28.920       22.255     2416.580      836.393      495.295        0.495        0.187       78.406       23.367        0.089      340.899       15.239      858.571
08/24/2013  02:17:00      -73.862        1.736       -3.317       27.887       34.562       14.127      777.697     1194.517      199.579        0.382        0.109       73.882        9.783        0.018      340.911       15.257      858.565
08/24/2013  02:18:00      -52.004        4.424       -1.043       16.312       14.768       13.808      266.081      218.105      190.667        0.170        0.034       52.192       10.375        0.040      340.951       15.326      858.554
08/24/2013  02:19:00      -75.981       -0.396       -2.590       17.398       20.189        9.950      302.706      407.591       98.999        0.329        0.040       75.982        8.302        0.012      341.141       15.649      858.536
08/24/2013  02:20:00      -92.518       -9.672       -7.991       17.863       15.931        9.155      319.070      253.785       83.817        0.469        0.033       93.023        8.179        0.008      341.150       15.663      858.535
08/24/2013  02:21:00      -99.048      -35.179       -8.765       18.448       17.417       12.671      340.311      303.341      160.551        0.596        0.040      105.110        5.016        0.002      340.994       15.399      858.524
08/24/2013  02:22:00     -158.639       -7.055      -19.031       42.608       25.654       18.654     1815.437      658.123      347.968        1.420        0.141      158.796       18.339        0.013      340.891       15.224      858.526
08/24/2013  02:23:00     -161.967       -0.590      -14.077       62.663       49.136       25.051     3926.674     2414.361      627.563        1.670        0.348      161.969       19.173        0.014      340.935       15.299      858.535
08/24/2013  02:24:00     -174.472        6.017      -15.443       42.584       38.104       21.202     1813.375     1451.915      449.520        1.721        0.186      174.576       16.004        0.008      341.025       15.451      858.537
08/24/2013  02:25:00     -142.306      -23.264      -15.706       31.034       29.886       20.023      963.090      893.166      400.902        1.165        0.113      144.195       18.114        0.016      340.945       15.316      858.524
08/24/2013  02:26:00     -169.958       11.067      -17.814       42.818       38.781       22.635     1833.408     1503.976      512.354        1.659        0.192      170.318       23.701        0.019      340.965       15.349      858.514
08/24/2013  02:27:00     -135.493        1.800      -10.800       33.739       32.333       25.227     1138.353     1045.438      636.382        1.065        0.141      135.505       23.606        0.030      340.906       15.250      858.510
08/24/2013  02:28:00     -118.614      -12.520      -13.741       45.954       33.319       21.647     2111.763     1110.188      468.592        0.905        0.185      119.273       24.427        0.042      340.936       15.300      858.491
08/24/2013  02:29:00      -70.618       -8.908        0.438       37.088       30.164       18.007     1375.552      909.869      324.243        0.384        0.130       71.177       20.966        0.087      340.960       15.340      858.467
08/24/2013  02:30:00      -80.671      -35.885       -9.352       21.201       23.057       16.123      449.480      531.632      259.949        0.456        0.062       88.292       13.839        0.025      341.014       15.432      858.465
08/24/2013  02:31:00     -105.224      -28.141       -9.898       26.682       22.235       13.650      711.938      494.410      186.314        0.668        0.070      108.922       14.631        0.018      341.035       15.470      858.469
08/24/2013  02:32:00     -106.832      -43.789       -8.649       17.299       13.789       14.003      299.243      190.139      196.083        0.705        0.034      115.458       10.570        0.008      340.979       15.374      858.477
08/24/2013  02:33:00      -98.934      -39.475       -5.490       17.278       24.385       15.697      298.532      594.651      246.409        0.626        0.057      106.519       11.034        0.011      340.989       15.391      858.489
08/24/2013  02:34:00     -108.544      -18.438       -3.026       27.585       21.566       15.723      760.944      465.079      247.207        0.680        0.074      110.099       12.884        0.014      341.015       15.434      858.509
08/24/2013  02:35:00     -109.857      -14.695       -8.298       25.671       23.195       19.892      659.010      538.007      395.672        0.697        0.080      110.835       15.236        0.019      341.017       15.439      858.518
08/24/2013  02:36:00      -89.904      -35.391       -2.065       34.168       24.827       21.330     1167.443      616.402      454.988        0.579        0.112       96.619       20.495        0.045      340.985       15.384      858.512
08/24/2013  02:37:00      -34.884      -20.817        5.485       19.352       20.813       10.828      374.484      433.179      117.256        0.130        0.046       40.623        8.913        0.048      341.062       15.514      858.510
08/24/2013  02:38:00      -27.907       -6.849        0.656        7.402        8.458        6.639       54.786       71.534       44.078        0.050        0.009       28.735        2.866        0.010      341.138       15.642      858.510
08/24/2013  02:39:00      -18.873        0.857       -0.674       17.295       18.602       13.931      299.120      346.042      194.071        0.060        0.042       18.893       12.731        0.454      341.030       15.459      858.513
08/24/2013  02:40:00      -47.824      -16.867        2.303       25.428       24.210       18.663      646.575      586.104      348.311        0.208        0.079       50.711       11.888        0.055      340.888       15.220      858.515
08/24/2013  02:41:00      -25.043      -26.069        9.148       33.467       20.988       14.249     1120.029      440.498      203.035        0.158        0.088       36.149       15.977        0.195      340.861       15.174      858.505
08/24/2013  02:42:00      -60.991      -44.207       -3.451       14.768       12.244       11.788      218.086      149.910      138.963        0.310        0.025       75.327        9.505        0.016      341.100       15.579      858.496
08/24/2013  02:43:00      -74.932      -20.783       -4.200       17.138       19.278       10.309      293.709      371.637      106.285        0.342        0.039       77.760        7.440        0.009      341.060       15.511      858.490
08/24/2013  02:44:00     -101.428      -23.876       -9.531       10.742       11.824        8.929      115.393      139.800       79.727        0.564        0.017      104.200        4.478        0.002      341.001       15.411      858.491
08/24/2013  02:45:00     -120.224      -41.210       -6.690       23.586       15.378        9.592      556.292      236.471       92.003        0.854        0.044      127.091        5.043        0.002      340.978       15.371      858.497
08/24/2013  02:46:00     -130.832      -28.806       -3.507       33.966       28.672       20.298     1153.666      822.068      412.014        1.017        0.119      133.966       17.380        0.017      340.832       15.126      858.506
08/24/2013  02:47:00      -80.831      -15.558       -2.009       22.788       20.329       17.184      519.283      413.280      295.305        0.400        0.061       82.315       15.421        0.035      340.688       14.881      858.497
08/24/2013  02:48:00      -82.097      -24.720      -14.037       12.621        7.976        6.635      159.278       63.622       44.027        0.391        0.013       85.738        2.506        0.001      340.857       15.166      858.483
08/24/2013  02:49:00      -65.346      -22.191       -1.405       20.690       15.238       15.959      428.088      232.205      254.684        0.284        0.046       69.011       11.934        0.030      340.795       15.062      858.492
08/24/2013  02:50:00      -99.518      -47.764       -5.625       31.031       16.100       12.149      962.894      259.216      147.596        0.679        0.068      110.386       15.844        0.021      340.866       15.182      858.502
08/24/2013  02:51:00     -137.292      -60.292       -4.508       20.655       17.920       11.740      426.643      321.141      137.832        1.169        0.044      149.947        6.588        0.002      340.790       15.053      858.507
08/24/2013  02:52:00      -72.765      -59.000       -3.127       38.925       19.064       14.670     1515.118      363.435      215.213        0.544        0.105       93.679       16.324        0.030      340.830       15.121      858.514
08/24/2013  02:53:00      -18.516      -54.556       -6.366       22.863       26.714       11.642      522.698      713.630      135.531        0.237        0.069       57.613        9.862        0.029      340.998       15.407      858.523
08/24/2013  02:54:00      -67.264      -72.388      -11.988       25.465       38.199        9.892      648.488     1459.172       97.851        0.606        0.110       98.815       12.342        0.016      341.062       15.515      858.545
08/24/2013  02:55:00      -91.301      -15.646       -7.959       52.648       28.749       24.697     2771.863      826.487      609.954        0.643        0.210       92.632       27.237        0.086      340.819       15.103      858.550
08/24/2013  02:56:00      -58.022      -13.733       -7.852       33.191       26.274       17.722     1101.639      690.305      314.082        0.286        0.105       59.625        8.541        0.021      340.628       14.781      858.546
08/24/2013  02:57:00      -57.017      -79.573       -5.819       38.319       33.151       16.789     1468.382     1098.984      281.855        0.623        0.142       97.892       16.155        0.027      340.939       15.306      858.548
08/24/2013  02:58:00     -117.403      -52.842      -11.582       17.115       22.036       12.537      292.908      485.589      157.188        0.882        0.047      128.746        9.273        0.005      340.919       15.274      858.544
08/24/2013  02:59:00     -104.907      -31.960       -4.466       28.628       23.153       13.526      819.580      536.049      182.945        0.679        0.077      109.668       15.218        0.019      340.901       15.240      858.531
08/24/2013  03:00:00      -71.153       -3.784       -3.210       25.372       18.760       10.491      643.730      351.941      110.053        0.310        0.055       71.253       11.173        0.025      340.825       15.114      858.504
08/24/2013  03:01:00      -95.610        4.985      -11.350        9.530       13.601        6.569       90.816      184.984       43.154        0.481        0.016       95.740        4.571        0.002      340.882       15.208      858.498
08/24/2013  03:02:00     -119.398       -3.689      -10.434       25.240       14.536       10.121      637.078      211.284      102.432        0.766        0.048      119.455        8.339        0.005      340.931       15.292      858.493
08/24/2013  03:03:00     -107.143      -22.368      -10.538       31.426       25.126       11.964      987.593      631.335      143.132        0.693        0.088      109.453       12.353        0.013      340.860       15.172      858.489
08/24/2013  03:04:00      -25.694      -46.434        3.385       55.761       27.242       26.510     3109.289      742.111      702.802        0.369        0.228       53.069       22.831        0.185      340.809       15.087      858.497
08/24/2013  03:05:00      -52.624      -44.376        9.271       61.095       41.269       30.604     3732.545     1703.116      936.603        0.560        0.319       68.837       26.066        0.143      340.757       14.998      858.521
08/24/2013  03:06:00     -137.191      -88.019       -3.351       45.247       33.474       28.225     2047.333     1120.516      796.673        1.527        0.198      163.000       19.706        0.015      340.800       15.071      858.542
08/24/2013  03:07:00     -114.465      -44.884      -15.956       51.772       25.099       19.025     2680.349      629.945      361.954        0.952        0.184      122.951       23.745        0.037      340.683       14.873      858.541
08/24/2013  03:08:00      -70.354       -0.930       -2.921       41.057       24.443       22.994     1685.638      597.472      528.705        0.388        0.141       70.360       26.330        0.140      340.639       14.798      858.513
08/24/2013  03:09:00      -61.858      -19.916      -15.510       11.045       12.126        9.288      121.992      147.033       86.261        0.241        0.018       64.985        7.252        0.012      340.696       14.896      858.494
08/24/2013  03:10:00      -57.698      -23.152      -22.343       10.314        7.368        7.121      106.381       54.293       50.706        0.229        0.011       62.170        5.023        0.007      340.666       14.845      858.496
08/24/2013  03:11:00      -38.201      -19.404       -8.934       23.662       14.224       11.605      559.871      202.334      134.682        0.141        0.045       42.846        7.909        0.034      340.690       14.885      858.510
08/24/2013  03:12:00      -33.952      -33.671        1.344       41.767       23.136       14.270     1744.523      535.280      203.643        0.239        0.124       47.817       15.466        0.105      340.600       14.731      858.517
08/24/2013  03:13:00      -89.957      -41.003      -13.751       21.129       19.482       11.807      446.430      379.562      139.411        0.546        0.048       98.861        9.789        0.010      340.517       14.590      858.518
08/24/2013  03:14:00      -50.207       -8.653      -13.394       30.319       15.997       11.351      919.260      255.889      128.836        0.204        0.065       50.947       13.199        0.067      340.532       14.617      858.517
08/24/2013  03:15:00       38.291       40.804        2.136       19.646       17.821       14.214      385.948      317.593      202.051        0.202        0.045       55.957       12.125        0.047      341.175       15.706      858.497
08/24/2013  03:16:00       42.611       15.072       -1.851       17.514       16.699       17.357      306.746      278.869      301.269        0.147        0.044       45.198       11.318        0.063      341.153       15.668      858.488
08/24/2013  03:17:00      -36.103      -22.172        1.298       20.443       13.378       15.172      417.934      178.973      230.195        0.131        0.041       42.368       11.307        0.071      340.886       15.218      858.502
08/24/2013  03:18:00      -73.423      -49.535       -7.182       31.889       16.927       18.699     1016.921      286.536      349.669        0.477        0.083       88.570       17.599        0.039      340.504       14.571      858.516
08/24/2013  03:19:00      -46.440      -45.571        6.799       40.365       30.264       20.522     1629.363      915.903      421.161        0.362        0.148       65.065       18.109        0.077      340.471       14.516      858.538
08/24/2013  03:20:00      -72.742      -18.951       -1.878       18.326       23.232       10.922      335.851      539.730      119.290        0.332        0.050       75.170        7.908        0.011      340.426       14.438      858.532
08/24/2013  03:21:00      -75.738       -2.105       -7.002       23.059       14.773       10.307      531.724      218.252      106.225        0.332        0.043       75.767       11.655        0.024      340.386       14.371      858.518
08/24/2013  03:22:00     -116.734      -48.583      -13.526       12.003       25.172       10.265      144.066      633.650      105.377        0.853        0.044      126.440        7.380        0.003      340.552       14.652      858.521
08/24/2013  03:23:00     -123.346      -76.550       -6.096       47.836       29.669       21.544     2288.322      880.268      464.161        1.237        0.182      145.170       15.190        0.011      340.399       14.391      858.532
08/24/2013  03:24:00     -175.156      -70.943       -9.321       21.512       29.479       13.769      462.785      869.001      189.585        1.866        0.076      188.977       11.654        0.004      340.213       14.079      858.539
08/24/2013  03:25:00     -154.994      -37.772       -6.208       30.740       24.023       13.127      944.957      577.083      172.319        1.359        0.085      159.530       11.527        0.005      340.190       14.040      858.540
08/24/2013  03:26:00     -107.421      -39.002       -7.374       25.893       18.499       15.533      670.436      342.196      241.277        0.718        0.063      114.282       10.539        0.009      340.297       14.221      858.534
08/24/2013  03:27:00      -76.339      -22.431        4.148       28.065       33.327       17.065      787.670     1110.718      291.219        0.427        0.109       79.567       13.583        0.029      340.307       14.235      858.536
08/24/2013  03:28:00      -66.494      -12.236        0.145       31.391       21.333       16.198      985.394      455.093      262.362        0.314        0.085       67.611       13.585        0.040      340.166       13.999      858.533
08/24/2013  03:29:00      -66.048      -19.619        2.155       19.081       15.142       10.183      364.075      229.269      103.693        0.272        0.035       68.900        9.682        0.020      340.226       14.100      858.525
08/24/2013  03:30:00      -65.840      -24.310        1.451       18.952       11.096       14.439      359.170      123.125      208.499        0.281        0.035       70.185       10.201        0.021      340.342       14.298      858.533
08/24/2013  03:31:00      -54.876      -29.149       -7.486       15.437       11.376        8.633      238.304      129.409       74.526        0.218        0.022       62.138        6.392        0.011      340.420       14.429      858.546
08/24/2013  03:32:00      -75.413      -31.804       -9.858       13.169        9.262        8.503      173.431       85.778       72.295        0.356        0.017       81.845        4.790        0.003      340.494       14.551      858.554
08/24/2013  03:33:00      -81.871      -17.716       -9.723       12.695       15.953        9.463      161.164      254.510       89.548        0.381        0.025       83.766        6.033        0.005      340.485       14.536      858.562
08/24/2013  03:34:00      -88.060      -16.074       -7.266       16.090       15.076       11.713      258.873      227.276      137.183        0.434        0.031       89.515       10.124        0.013      340.433       14.449      858.582
08/24/2013  03:35:00      -79.541      -22.882       -7.134       21.230       14.707       10.798      450.710      216.282      116.603        0.384        0.039       82.767       10.767        0.017      340.408       14.406      858.595
08/24/2013  03:36:00      -78.594      -34.387       -7.869        8.037       11.536        6.687       64.596      133.079       44.710        0.383        0.012       85.788        4.957        0.003      340.474       14.519      858.592
08/24/2013  03:37:00      -62.179       -9.637       -9.669       13.684       11.754        6.547      187.249      138.155       42.858        0.221        0.018       62.921        2.742        0.002      340.485       14.536      858.589
08/24/2013  03:38:00      -53.132        2.316       -8.783        6.422        7.219        7.466       41.245       52.115       55.744        0.153        0.007       53.182        3.819        0.005      340.436       14.454      858.599
08/24/2013  03:39:00      -62.234       -4.391      -13.353        8.521        9.847        6.202       72.602       96.958       38.470        0.214        0.010       62.389        2.863        0.002      340.487       14.540      858.596
08/24/2013  03:40:00     -102.309      -26.551      -20.257       19.216       13.580       12.390      369.272      184.425      153.517        0.614        0.035      105.698        9.751        0.009      340.293       14.215      858.599
08/24/2013  03:41:00     -114.842      -64.169      -14.291       20.114       22.227       14.330      404.558      494.047      205.339        0.931        0.055      131.553        4.048        0.001      340.130       13.938      858.612
08/24/2013  03:42:00      -66.394      -11.484       -2.925       20.669       23.001       14.542      427.199      529.040      211.477        0.286        0.058       67.380       11.052        0.027      340.036       13.780      858.618
08/24/2013  03:43:00      -48.413        1.847       -6.821       16.231       11.898       11.442      263.450      141.569      130.913        0.146        0.027       48.449        4.454        0.008      340.150       13.972      858.600
08/24/2013  03:44:00      -68.947        7.609      -13.916       21.115        7.307        6.547      445.839       53.388       42.866        0.277        0.027       69.365        4.059        0.003      340.309       14.240      858.580
08/24/2013  03:45:00      -50.869      -13.785      -10.151       11.729       15.638       11.887      137.574      244.555      141.295        0.170        0.026       52.704        9.268        0.031      340.327       14.271      858.568
08/24/2013  03:46:00      -49.641       -7.635       -5.981       12.435       12.553       10.248      154.629      157.577      105.014        0.149        0.021       50.225        7.926        0.025      340.434       14.452      858.576
08/24/2013  03:47:00      -76.259      -26.339      -16.930       25.303       12.693       11.482      640.226      161.103      131.832        0.386        0.047       80.680        7.926        0.010      340.274       14.180      858.580
08/24/2013  03:48:00     -134.499      -50.464      -10.728       33.235       30.928       22.362     1104.539      956.512      500.058        1.166        0.128      143.654       13.918        0.009      340.024       13.761      858.589
08/24/2013  03:49:00     -153.500      -16.592       -2.331       53.411       51.414       30.922     2852.731     2643.386      956.198        1.515        0.323      154.394       30.446        0.039      340.004       13.724      858.603
08/24/2013  03:50:00      -81.913      -15.184       -4.616       32.979       32.465       20.661     1087.612     1053.948      426.861        0.476        0.128       83.309       19.634        0.056      339.968       13.665      858.600
08/24/2013  03:51:00      -66.699       12.566       -5.863       26.970       18.161       12.763      727.365      329.816      162.906        0.293        0.061       67.872       11.916        0.031      340.091       13.872      858.579
08/24/2013  03:52:00      -12.178       45.282       -4.401       17.424       19.196        7.716      303.581      368.469       59.539        0.147        0.037       46.891        6.671        0.020      340.221       14.093      858.552
08/24/2013  03:53:00       -0.521       48.942       -3.917        8.985       14.439        6.913       80.722      208.480       47.794        0.137        0.017       48.945        6.308        0.017      340.568       14.677      858.545
08/24/2013  03:54:00      -22.627       42.321       -4.306       10.691       19.434        7.251      114.299      377.677       52.579        0.143        0.027       47.990        3.675        0.006      340.835       15.131      858.554
08/24/2013  03:55:00      -54.912      -35.765      -11.033       13.904       20.159       10.286      193.331      406.371      105.802        0.256        0.035       65.532        9.262        0.020      340.345       14.302      858.568
08/24/2013  03:56:00      -90.207      -16.553       -9.520       17.281       12.974       11.463      298.637      168.321      131.411        0.455        0.030       91.713       10.532        0.013      340.106       13.896      858.581
08/24/2013  03:57:00      -85.247      -34.019      -13.858       24.360       25.827       13.424      593.402      667.043      180.214        0.503        0.072       91.784       15.711        0.029      340.137       13.947      858.602
08/24/2013  03:58:00      -75.443      -13.666       -8.997       28.738       27.181       16.536      825.885      738.811      273.444        0.390        0.092       76.671       14.606        0.036      339.932       13.604      858.611
08/24/2013  03:59:00      -41.520       -6.074       -7.848       13.261       12.010        9.965      175.862      144.228       99.300        0.112        0.021       41.962        8.385        0.040      339.991       13.703      858.611
08/24/2013  04:00:00      -36.713      -15.766      -13.441       20.965       11.103        7.069      439.542      123.284       49.972        0.119        0.031       39.955        5.510        0.019      340.179       14.020      858.617
08/24/2013  04:01:00      -59.308      -39.952       -9.792       37.951       17.970       16.920     1440.281      322.924      286.279        0.363        0.102       71.510       12.076        0.029      340.091       13.873      858.631
08/24/2013  04:02:00     -106.936      -31.710      -12.284       13.581       13.284       10.360      184.455      176.457      107.333        0.653        0.023      111.539        4.627        0.002      340.023       13.758      858.627
08/24/2013  12:52:00        3.565       18.323       30.283       22.164       13.918       23.404      491.226      193.709      547.738        0.125        0.062       18.667       20.938        1.258      346.934       25.539      857.917
08/24/2013  12:53:00       46.907       11.709       21.449       24.670       31.072       22.844      608.608      965.456      521.845        0.245        0.105       48.347       19.235        0.158      346.025       23.975      857.906
08/24/2013  12:54:00       53.026       21.409       27.321       25.869       20.856       26.811      669.219      434.986      718.831        0.292        0.091       57.185       12.210        0.046      346.013       23.956      857.892
08/24/2013  12:55:00       34.678       21.847       24.345       32.643       23.802       24.437     1065.574      566.527      597.173        0.225        0.111       40.986       12.393        0.091      346.328       24.497      857.893
08/24/2013  12:56:00       54.154       34.550       28.732       55.975       36.399       38.122     3133.228     1324.911     1453.265        0.543        0.296       64.237       11.728        0.033      347.134       25.884      857.887
08/24/2013  12:57:00       19.736       31.945       22.779       65.492       41.723       26.413     4289.171     1740.823      697.645        0.433        0.336       37.549       25.885        0.475      347.327       26.217      857.888
08/24/2013  12:58:00      -15.863       94.193       -1.299       43.128       53.922       29.893     1860.052     2907.565      893.575        0.739        0.283       95.519       18.969        0.039      347.242       26.069      857.882
08/24/2013  12:59:00      -57.647      127.406      -17.068       31.413       39.520       27.959      986.748     1561.829      781.681        1.159        0.167      139.841       19.373        0.019      346.855       25.403      857.891
08/24/2013  13:00:00       60.386       93.538       11.016       76.344       60.938       47.918     5828.348     3713.411     2296.164        1.218        0.592      111.336       48.161        0.187      347.023       25.692      857.894
08/24/2013  13:01:00        6.499       29.465       21.796       37.504       27.236       26.714     1406.582      741.820      713.653        0.212        0.143       30.173       11.847        0.154      346.648       25.047      857.892
08/24/2013  13:02:00       12.631       28.389        5.734       31.389       37.738       28.008      985.263     1424.185      784.456        0.210        0.160       31.072       13.650        0.193      346.912       25.502      857.870
08/24/2013  13:03:00       40.745      122.718       -7.500       53.839       57.241       41.786     2898.634     3276.548     1746.030        1.235        0.396      129.306       38.819        0.090      347.036       25.714      857.880
08/24/2013  13:04:00       76.653      168.253       -5.141       60.089       94.030       62.985     3610.632     8841.643     3967.060        2.531        0.821      184.891       65.934        0.127      347.014       25.676      857.851
08/24/2013  13:05:00       97.833      109.022       18.723       94.415       67.420       47.438     8914.195     4545.394     2250.366        1.876        0.785      146.482       45.758        0.098      347.033       25.708      857.846
08/24/2013  13:06:00       80.519       65.817        9.862       62.081       46.321       39.370     3853.997     2145.672     1549.988        0.923        0.377      103.996       40.782        0.154      346.971       25.602      857.836
08/24/2013  13:07:00       53.449       74.915      -13.977       48.593       65.443       34.818     2361.319     4282.732     1212.321        0.826        0.393       92.027       21.105        0.053      347.048       25.735      857.829
08/24/2013  13:08:00      -55.729      -20.458      -19.300       35.689       33.147       24.468     1273.738     1098.692      598.682        0.343        0.149       59.366       17.717        0.089      346.996       25.644      857.800
08/24/2013  13:09:00      -23.385      -10.752       21.902       40.518       37.799       26.568     1641.706     1428.794      705.844        0.246        0.189       25.738       25.937        1.015      347.357       26.269      857.793
08/24/2013  13:10:00      -20.205       14.283       34.807       28.304       43.629       21.804      801.103     1903.513      475.427        0.250        0.159       24.744       18.609        0.566      347.117       25.855      857.765
08/24/2013  13:11:00       55.608      -13.894        2.291       40.817       55.208       34.786     1666.057     3047.948     1210.042        0.461        0.296       57.317       30.036        0.275      346.308       24.463      857.774
08/24/2013  13:12:00       37.691     -175.447       -8.772       68.107      103.502       55.352     4638.596    10712.688     3063.798        2.534        0.921      179.450       47.165        0.069      347.032       25.705      857.757
08/24/2013  13:13:00       77.912     -189.761      -22.558       67.141       82.718       51.049     4507.961     6842.227     2605.996        2.827        0.698      205.133       30.764        0.022      347.069       25.769      857.771
08/24/2013  13:14:00       55.475       -3.018       43.089       65.139      105.396       61.676     4243.108    11108.242     3803.926        1.205        0.958       55.557       71.801        1.670      346.894       25.469      857.760
08/24/2013  13:15:00      -10.802     -103.068      -32.873       80.300       71.188       43.852     6448.141     5067.802     1923.010        1.263        0.672      103.632       41.844        0.163      347.110       25.842      857.739
08/24/2013  13:16:00       21.666     -205.310      -26.486       74.234       95.779       39.394     5510.638     9173.686     1551.917        2.978        0.812      206.450       42.669        0.043      347.119       25.854      857.771
08/24/2013  13:17:00       49.202      -34.421       21.325       89.013       93.133       73.415     7923.227     8673.752     5389.793        1.302        1.099       60.047       64.085        1.139      347.406       26.351      857.756
08/24/2013  13:18:00       67.867     -101.353       -7.996       65.664       79.212       59.550     4311.796     6274.599     3546.181        1.453        0.707      121.977       42.756        0.123      347.178       25.959      857.768
08/24/2013  13:19:00       55.633       55.118      113.783       83.830       96.710       60.115     7027.493     9352.740     3613.841        1.953        1.000       78.314       59.883        0.585      347.002       25.655      857.745
08/24/2013  13:20:00       59.148      -12.452       27.739       49.211       62.920       53.417     2421.752     3958.924     2853.345        0.683        0.462       60.444       50.822        0.707      346.692       25.122      857.747
08/24/2013  13:21:00       74.637      -83.664       16.238       77.866       87.394       63.496     6063.050     7637.789     4031.788        1.528        0.887      112.118       35.296        0.099      347.125       25.868      857.722
08/24/2013  13:22:00       60.862      -33.100       45.042       89.437      107.686       79.332     7998.891    11596.207     6293.537        1.635        1.294       69.281       76.319        1.213      347.321       26.205      857.708
08/24/2013  13:23:00        4.363      -70.391        8.107       41.277       70.859       47.916     1703.785     5021.044     2295.939        0.703        0.451       70.526       34.472        0.239      347.138       25.891      857.723
08/24/2013  13:24:00      -11.836     -100.636      -11.118       33.145       43.893       25.686     1098.574     1926.629      659.759        0.704        0.184      101.330       17.169        0.029      347.403       26.348      857.730
08/24/2013  13:25:00       -2.455      -40.667       11.781       19.293       40.809       32.337      372.204     1665.366     1045.696        0.244        0.154       40.741       31.775        0.608      347.377       26.303      857.714
08/24/2013  13:26:00       44.246      -63.422       11.768       55.306       52.193       32.735     3058.766     2724.106     1071.584        0.649        0.343       77.331       33.735        0.190      347.316       26.196      857.703
08/24/2013  13:27:00       54.644        0.778       26.590       40.168       36.110       32.018     1613.457     1303.935     1025.140        0.382        0.197       54.649       24.049        0.194      347.147       25.906      857.699
08/24/2013  13:28:00       24.046      -33.080       11.913       24.125       46.655       28.877      581.992     2176.693      833.909        0.270        0.180       40.896       26.798        0.429      346.743       25.211      857.689
08/24/2013  13:29:00      -57.812       -8.561       -9.767       59.222       35.119       20.763     3507.199     1233.358      431.113        0.434        0.259       58.442       28.694        0.241      347.393       26.329      857.659
08/24/2013  13:30:00      -90.153      -82.936       -7.699       68.560       47.307       24.037     4700.432     2237.972      577.775        1.129        0.376      122.499       23.567        0.037      347.377       26.302      857.663
08/24/2013  13:31:00       -2.108       -5.221        4.219       46.737       20.453       17.215     2184.313      418.310      296.358        0.147        0.145        5.631       22.005       15.274      347.112       25.846      857.657
08/24/2013  13:32:00       23.543       26.398       26.588       47.563       34.072       34.756     2262.221     1160.917     1207.957        0.329        0.232       35.371       23.006        0.423      347.076       25.783      857.668
08/24/2013  13:33:00       -1.255     -101.521        3.488       78.658       89.352       57.406     6187.114     7983.830     3295.498        1.389        0.873      101.529       53.028        0.273      347.468       26.457      857.667
08/24/2013  13:34:00      -14.468      -15.768       -1.543       56.612       72.517       39.210     3204.964     5258.775     1537.426        0.523        0.500       21.400       37.237        3.028      347.524       26.559      857.677
08/24/2013  13:35:00       32.988      -36.977        4.241       52.324       73.459       39.251     2737.799     5396.170     1540.661        0.607        0.484       49.553       47.084        0.903      347.444       26.417      857.669
08/24/2013  13:36:00       30.817        7.706       35.679       49.849       55.386       42.010     2484.921     3067.621     1764.861        0.480        0.366       31.766       45.992        2.096      347.391       26.326      857.675
08/24/2013  13:37:00       50.876        4.065       32.834       45.248       42.651       34.459     2047.413     1819.150     1187.402        0.437        0.253       51.038       36.758        0.519      346.963       25.590      857.669
08/24/2013  13:38:00       31.855      -59.818       13.739       58.068       79.995       43.645     3371.880     6399.230     1904.929        0.823        0.584       67.771       49.248        0.528      347.172       25.949      857.662
08/24/2013  13:39:00       15.928      -52.651        6.694       41.518       56.020       39.445     1723.749     3138.226     1555.882        0.474        0.321       55.008       32.131        0.341      347.547       26.596      857.662
08/24/2013  13:40:00      -18.028      -41.608       31.629       35.648       33.839       26.106     1270.763     1145.106      681.540        0.308        0.155       45.346       19.139        0.178      347.695       26.850      857.640
08/24/2013  13:41:00      -50.613       33.847      -10.692       44.474       27.052       22.772     1977.972      731.792      518.559        0.352        0.161       60.888       17.353        0.081      347.630       26.738      857.631
08/24/2013  13:42:00     -172.368      -67.840      -12.427       80.990       81.651       31.617     6559.399     6666.963      999.634        2.434        0.711      185.238       32.194        0.030      347.539       26.580      857.640
08/24/2013  13:43:00     -219.513     -227.467        2.551      146.001      194.481       80.236    21316.242    37822.954     6437.843        8.274        3.279      316.113       66.612        0.044      347.549       26.595      857.602
08/24/2013  13:44:00     -120.457       51.491        3.676      122.528       66.342       55.958    15013.122     4401.313     3131.299        1.986        1.127      131.001       58.313        0.198      347.826       27.076      857.563
08/24/2013  13:45:00     -242.045      -17.543       -8.524      142.566      101.043       70.998    20325.074    10209.595     5040.717        4.726        1.779      242.680       76.628        0.100      347.753       26.947      857.534
08/24/2013  13:46:00       -1.086      -51.433       -5.372       99.410      100.768       73.020     9882.321    10154.171     5331.882        1.402        1.268       51.444       35.520        0.477      347.931       27.256      857.567
08/24/2013  13:47:00      -81.562     -125.232        1.174       93.104       69.645       40.391     8668.296     4850.372     1631.397        1.874        0.758      149.450       34.009        0.052      347.871       27.153      857.554
08/24/2013  13:48:00     -138.443     -110.750      -10.590       98.504       76.905       45.438     9703.083     5914.407     2064.568        2.461        0.884      177.291       40.184        0.051      347.814       27.054      857.519
08/24/2013  13:49:00     -297.780      -71.405      -24.341       97.656       99.405       48.496     9536.780     9881.421     2351.834        5.806        1.089      306.221       51.598        0.028      347.588       26.662      857.499
08/24/2013  13:50:00     -208.854      -64.668       -2.089      141.976      108.479       48.333    20157.157    11767.741     2336.076        4.103        1.713      218.637       55.553        0.065      347.887       27.180      857.495
08/24/2013  13:51:00     -106.552     -184.100      -22.212       86.055      116.697       51.454     7405.415    13618.267     2647.543        3.470        1.184      212.711       41.103        0.037      347.606       26.694      857.492
08/24/2013  13:52:00      -50.895      -36.607        6.581       60.235       48.430       38.697     3628.249     2345.498     1497.478        0.572        0.374       62.693       35.671        0.324      347.779       26.994      857.436
08/24/2013  13:53:00     -301.198     -265.728      -15.284      173.777      129.983       81.489    30198.581    16895.578     6640.416       10.764        2.687      401.661       90.763        0.051      347.673       26.810      857.400
08/24/2013  13:54:00     -363.159     -290.926       -9.571      170.944      130.788       96.452    29221.704    17105.625     9302.996       13.611        2.782      465.320       99.117        0.045      347.568       26.627      857.404
08/24/2013  13:55:00     -169.932      -53.588       11.386      148.229       96.592       50.702    21971.838     9329.957     2570.742        3.287        1.694      178.181       57.068        0.103      347.747       26.940      857.440
08/24/2013  13:56:00     -226.741      -56.082       -3.343      126.115      116.056       53.350    15904.931    13469.090     2846.174        4.339        1.611      233.574       44.936        0.037      347.548       26.594      857.423
08/24/2013  13:57:00     -161.218     -111.734      -11.727      103.933      126.276       52.636    10802.162    15945.742     2770.563        3.406        1.476      196.152       41.673        0.045      347.761       26.963      857.406
08/24/2013  13:58:00     -299.883     -164.507      -14.322      169.897      144.536       66.207    28864.928    20890.797     4383.339        8.566        2.707      342.041       71.494        0.044      347.693       26.844      857.432
08/24/2013  13:59:00     -286.748     -244.281       -1.072      156.943      147.088       80.988    24630.974    21634.905     6559.032        9.735        2.641      376.693       88.792        0.056      347.590       26.668      857.437
08/24/2013  14:00:00     -379.122     -219.627      -12.272      142.419      126.920       69.211    20283.183    16108.636     4790.184       11.664        2.059      438.143       69.311        0.025      347.436       26.399      857.428
08/24/2013  14:01:00     -143.252     -166.806       22.549      133.814      142.314       52.394    17906.291    20253.386     2745.109        4.487        2.045      219.876       55.914        0.065      347.515       26.536      857.428
08/24/2013  14:02:00     -152.493     -227.550       17.658      138.159      128.921       78.530    19087.954    16620.621     6166.968        5.860        2.094      273.922       72.892        0.071      347.687       26.834      857.440
08/24/2013  14:03:00     -197.766      -95.894        7.498      130.056       87.693       58.432    16914.601     7690.054     3414.261        3.819        1.401      219.789       59.225        0.073      347.828       27.078      857.460
08/24/2013  14:04:00     -117.536     -111.969       -1.408      124.554      136.225       48.646    15513.655    18557.215     2366.433        3.139        1.822      162.332       48.944        0.091      347.781       26.996      857.441
08/24/2013  14:05:00     -249.790      -78.410        2.709      190.557      126.024       55.065    36311.797    15881.941     3032.172        6.188        2.761      261.808       69.965        0.071      347.884       27.174      857.436
08/24/2013  14:06:00     -300.959     -251.579       16.046      163.631      147.406       85.276    26774.986    21728.564     7272.043       10.494        2.789      392.260       87.146        0.049      347.590       26.666      857.448
08/24/2013  14:07:00     -132.472     -167.423       20.193      136.616      109.654       69.505    18663.868    12024.087     4830.975        4.075        1.776      213.493       67.657        0.100      347.690       26.838      857.451
08/24/2013  14:08:00     -221.676     -100.590      -11.972      113.295       99.031       60.149    12835.694     9807.044     3617.907        4.283        1.313      243.431       60.077        0.061      347.726       26.901      857.462
08/24/2013  14:09:00     -232.914      -96.904      -10.895      105.162       75.285       48.314    11059.092     5667.787     2334.264        4.141        0.953      252.269       38.864        0.024      347.869       27.147      857.452
08/24/2013  14:10:00     -193.594      -33.789       -0.624      149.466      109.004       59.105    22340.056    11881.777     3493.350        3.816        1.886      196.520       62.234        0.100      348.017       27.405      857.456
08/24/2013  14:11:00     -365.576      -49.213      -42.316      113.357      116.653       61.366    12849.848    13607.941     3765.744        8.403        1.511      368.873       46.925        0.016      347.831       27.082      857.442
08/24/2013  14:12:00     -266.775      -84.091       -4.006      160.655      119.063       66.426    25810.061    14176.057     4412.423        6.132        2.220      279.714       78.707        0.079      347.805       27.037      857.421
08/24/2013  14:13:00     -414.556       -3.657      -35.760      123.819      166.697       69.318    15331.044    27787.857     4804.983       11.053        2.396      414.572       66.051        0.025      347.558       26.610      857.387
08/24/2013  14:14:00     -357.296      -31.364      -15.297      147.365      147.297       61.051    21716.322    21696.268     3727.255        8.800        2.357      358.670       57.022        0.025      347.738       26.920      857.349
08/24/2013  14:15:00     -251.689     -131.306       19.102      179.300      141.873       73.669    32148.391    20128.064     5427.192        6.932        2.885      283.882       81.309        0.082      347.655       26.778      857.341
08/24/2013  14:16:00     -285.710      -27.379      -12.227      145.693      113.252       62.178    21226.504    12826.104     3866.070        6.022        1.896      287.019       69.026        0.058      347.876       27.160      857.327
08/24/2013  14:17:00     -198.319       31.433       14.825      183.208      128.027       80.312    33565.321    16390.907     6449.989        4.846        2.820      200.795       97.733        0.237      348.132       27.602      857.317
08/24/2013  14:18:00     -322.042        2.362      -37.453      174.807       87.637       56.515    30557.539     7680.280     3193.970        7.327        2.072      322.051       67.008        0.043      347.900       27.202      857.308
08/24/2013  14:19:00     -405.420     -107.899      -25.224      194.547      134.482       75.428    37848.524    18085.478     5689.350       11.912        3.081      419.532       95.517        0.052      347.700       26.856      857.294
08/24/2013  14:20:00     -213.599       11.353       -4.683      149.489      120.923       63.012    22346.824    14622.489     3970.452        4.335        2.047      213.901       76.987        0.130      347.961       27.308      857.303
08/24/2013  14:21:00     -251.751     -214.523        1.948      186.378      140.208       77.857    34736.682    19658.333     6061.685        8.492        3.023      330.755       82.714        0.063      347.865       27.141      857.303
08/24/2013  14:22:00     -246.840     -178.949       -2.477      158.364      130.539       67.254    25079.255    17040.331     4523.109        6.979        2.332      304.882       80.478        0.070      347.778       26.992      857.292
08/24/2013  14:23:00     -229.792     -161.534        5.382      150.475       98.145       62.241    22642.739     9632.526     3873.975        5.753        1.807      280.887       72.360        0.066      347.814       27.054      857.304
08/24/2013  14:24:00     -233.123     -129.544       -5.649      164.242      110.141       57.684    26975.362    12131.059     3327.404        5.679        2.122      266.698       62.861        0.056      347.816       27.056      857.308
08/24/2013  14:25:00     -172.266      -58.071       11.947      120.155      102.972       66.562    14437.203    10603.280     4430.532        3.132        1.474      181.790       78.476        0.186      348.039       27.442      857.302
08/24/2013  14:26:00     -247.843     -198.477       11.616      175.333      102.163       69.275    30741.627    10437.354     4798.968        7.346        2.299      317.521       78.781        0.062      347.808       27.043      857.308
08/24/2013  14:27:00     -234.269     -166.120        6.132      145.441      115.904       70.195    21153.169    13433.761     4927.275        6.101        1.976      287.190       81.518        0.081      347.561       26.616      857.318
08/24/2013  14:28:00     -243.354     -204.237      -11.217      180.609      146.830       75.715    32619.698    21559.145     5732.788        8.047        2.996      317.701       79.275        0.062      347.535       26.572      857.313
08/24/2013  14:29:00     -281.133     -184.393      -20.331      186.656      123.507       56.953    34840.553    15253.885     3243.685        8.338        2.667      336.210       77.979        0.054      347.458       26.439      857.300
08/24/2013  14:30:00      -74.878     -132.408       20.544      102.946       82.470       59.496    10597.901     6801.316     3539.742        2.225        1.047      152.114       66.087        0.189      347.736       26.922      857.260
08/24/2013  14:31:00     -138.660     -179.810        3.963      128.719      110.261       56.463    16568.682    12157.530     3188.113        4.174        1.596      227.065       52.874        0.054      347.866       27.143      857.236
08/24/2013  14:32:00     -364.713      -99.380      -15.002      157.296      117.381       81.826    24741.913    13778.386     6695.459        9.416        2.261      378.011       74.555        0.039      347.819       27.061      857.211
08/24/2013  14:33:00     -229.651     -184.400        1.352      163.526      100.907       59.497    26740.763    10182.214     3539.898        6.360        2.023      294.521       70.083        0.057      347.931       27.254      857.207
08/24/2013  14:34:00     -310.704     -161.528       -6.638      145.925       98.532       60.003    21294.041     9708.472     3600.404        7.863        1.730      350.184       59.672        0.029      347.889       27.181      857.190
08/24/2013  14:35:00     -242.569      -25.401      -12.904      205.626      127.648       65.124    42281.880    16294.070     4241.104        6.122        3.141      243.896       74.453        0.093      348.020       27.409      857.224
08/24/2013  14:36:00     -270.232       33.826      -15.375      147.650      104.872       53.769    21800.624    10998.037     2891.118        5.504        1.784      272.341       65.009        0.057      347.989       27.355      857.238
08/24/2013  14:37:00     -200.752     -110.677       -0.518      145.219       93.607       57.622    21088.516     8762.183     3320.331        4.285        1.659      229.240       55.659        0.059      348.074       27.502      857.244
08/24/2013  14:38:00     -136.667      -53.877        3.511      114.208      102.355       67.162    13043.492    10476.458     4510.762        2.481        1.402      146.903       66.683        0.206      347.892       27.188      857.216
08/24/2013  14:39:00     -271.799      -95.597      -10.587      113.263       66.623       45.618    12828.540     4438.570     2080.974        5.123        0.967      288.120       48.419        0.028      347.663       26.792      857.205
08/24/2013  14:40:00     -308.012      -76.041      -30.936      164.023      112.860       51.107    26903.636    12737.484     2611.954        7.192        2.113      317.260       37.070        0.014      347.711       26.876      857.203
08/24/2013  14:41:00     -136.987     -152.169       12.196      198.797       98.880       63.738    39520.167     9777.182     4062.578        4.770        2.668      204.746       80.608        0.155      347.875       27.159      857.206
08/24/2013  14:42:00     -370.724     -132.035       -5.887      187.731      188.208       76.985    35243.078    35422.146     5926.705       11.573        3.830      393.535       85.606        0.047      347.693       26.841      857.193
08/24/2013  14:43:00     -409.863     -175.080      -20.428      200.776      140.827       75.864    40310.953    19832.366     5755.285       13.247        3.295      445.692       70.296        0.025      347.646       26.764      857.194
08/24/2013  14:44:00     -151.177     -287.734        6.756      124.264      112.952       73.437    15441.506    12758.164     5393.004        6.964        1.680      325.032       67.496        0.043      347.597       26.677      857.174
08/24/2013  14:45:00     -216.225     -105.358       -3.941      114.494       94.350       58.923    13108.785     8901.913     3471.909        4.167        1.274      240.528       60.141        0.063      347.853       27.119      857.161
08/24/2013  14:46:00     -186.895      -83.354       -3.609      153.603      101.950       54.511    23593.874    10393.900     2971.413        3.942        1.848      204.641       61.566        0.091      347.825       27.071      857.147
08/24/2013  14:47:00     -261.919     -140.994       -4.182      159.102       97.436       54.962    25313.485     9493.688     3020.846        6.316        1.891      297.458       52.613        0.031      347.876       27.160      857.123
08/24/2013  14:48:00     -245.502      -81.716       -8.146      136.904       98.699       62.282    18742.818     9741.566     3879.067        4.968        1.618      258.744       66.584        0.066      347.867       27.142      857.107
08/24/2013  14:49:00     -286.517      -67.745      -13.332      129.307      144.094       67.506    16720.296    20763.011     4557.120        6.444        2.102      294.417       62.791        0.045      347.981       27.340      857.086
08/24/2013  14:50:00     -314.432      -84.308      -13.691      139.364      153.879       59.867    19422.449    23678.891     3584.053        7.641        2.334      325.538       49.932        0.024      347.967       27.315      857.087
08/24/2013  14:51:00     -274.572      -48.502      -10.422      130.343       94.951       56.410    16989.345     9015.626     3182.048        5.351        1.459      278.823       50.916        0.033      347.990       27.355      857.075
08/24/2013  14:52:00     -225.203      -68.609       -2.248      170.667      132.938       65.589    29127.055    17672.470     4301.975        5.326        2.555      235.423       64.635        0.075      348.022       27.413      857.075
08/24/2013  14:53:00     -141.541      -17.127        6.732      125.752      106.641       55.202    15813.500    11372.312     3047.256        2.530        1.512      142.573       62.297        0.191      347.869       27.148      857.058
08/24/2013  14:54:00     -220.790     -183.884       -9.086      134.622       94.378       71.817    18123.036     8907.225     5157.678        5.741        1.609      287.335       72.306        0.063      347.589       26.664      857.037
08/24/2013  14:55:00     -322.421     -204.486      -18.921      183.841      127.048       73.712    33797.618    16141.183     5433.532       10.074        2.769      381.798       77.316        0.041      347.741       26.927      857.032
08/24/2013  14:56:00     -389.074      -60.333      -29.298      140.568      113.164       72.674    19759.295    12805.992     5281.558        9.685        1.892      393.724       77.909        0.039      347.812       27.049      857.027
08/24/2013  14:57:00     -326.944     -148.043      -16.108      123.634      107.141       67.347    15285.464    11479.124     4535.636        8.018        1.565      358.900       62.958        0.031      348.080       27.511      857.027
08/24/2013  14:58:00     -326.995     -110.453       -7.397      184.791      171.875       70.745    34147.883    29541.167     5004.862        9.392        3.435      345.146       75.694        0.048      347.930       27.253      857.021
08/24/2013  14:59:00     -279.381     -118.045      -18.723       99.133      101.145       53.141     9827.266    10230.346     2823.925        5.761        1.144      303.296       39.930        0.017      347.976       27.331      857.043
08/24/2013  15:00:00     -213.660     -148.914       11.002      125.199      103.666       59.904    15674.844    10746.690     3588.450        4.897        1.500      260.434       66.005        0.064      347.968       27.319      857.029
08/24/2013  15:01:00     -104.539      -34.953       18.774      131.415       89.728       71.913    17269.799     8051.100     5171.410        2.149        1.525      110.227       75.267        0.466      348.239       27.787      857.033
08/24/2013  15:02:00     -177.815       -9.887       -1.847      128.235       94.655       55.766    16444.089     8959.592     3109.876        3.011        1.426      178.089       59.008        0.110      348.047       27.455      857.027
08/24/2013  15:03:00     -233.371     -143.771       12.678      158.217      130.093       67.951    25032.582    16924.100     4617.296        6.092        2.329      274.102       66.830        0.059      347.962       27.307      857.005
08/24/2013  15:04:00     -227.876     -205.415       12.299      179.861      146.562       72.325    32349.997    21480.528     5230.859        7.666        2.953      306.795       78.927        0.066      347.878       27.162      857.022
08/24/2013  15:05:00     -178.438     -201.230      -20.172      149.556      125.151       86.006    22366.982    15662.851     7396.983        5.907        2.271      268.949       85.436        0.101      347.889       27.182      857.002
08/24/2013  15:06:00     -198.717     -187.676       -7.057       97.370      104.775       50.755     9480.885    10977.837     2576.110        4.889        1.152      273.333       50.007        0.033      347.718       26.886      856.993
08/24/2013  15:07:00     -201.823     -142.913       -0.004      112.913      108.169       55.124    12749.457    11700.509     3038.689        4.432        1.374      247.298       46.097        0.035      347.803       27.034      856.976
08/24/2013  15:08:00     -265.582     -148.749       -5.902      250.660      173.175      105.487    62830.593    29989.452    11127.430        9.830        5.197      304.402      131.531        0.187      347.971       27.323      856.961
08/24/2013  15:09:00     -164.333      -75.591       26.701      202.783      177.184       94.785    41120.790    31394.039     8984.110        5.745        4.075      180.884      104.861        0.336      347.976       27.333      856.916
08/24/2013  15:10:00     -252.530     -113.146       -2.702      155.380      132.918       64.468    24143.019    17667.184     4156.090        6.126        2.298      276.719       77.215        0.078      347.984       27.346      856.921
08/24/2013  15:11:00     -290.854     -206.345       -2.262      212.339      176.438       88.867    45087.707    31130.316     7897.381       10.563        4.206      356.615      108.750        0.093      347.914       27.225      856.911
08/24/2013  15:12:00     -203.721     -196.047       11.592      151.337      175.155       85.034    22902.776    30679.227     7230.826        7.043        3.041      282.731       89.961        0.101      347.883       27.170      856.902
08/24/2013  15:13:00     -349.339     -170.871      -14.522      186.467      148.986       87.425    34770.050    22196.789     7643.070       10.802        3.230      388.889      100.887        0.067      347.961       27.306      856.907
08/24/2013  15:14:00     -441.174     -121.968      -15.193      193.102      154.786       82.046    37288.432    23958.706     6731.485       13.885        3.399      457.724       89.848        0.039      347.881       27.169      856.912
08/24/2013  15:15:00     -384.041     -159.301      -21.196      187.477      140.361       80.155    35147.652    19701.190     6424.808       11.728        3.064      415.769       81.802        0.039      347.820       27.062      856.837
08/24/2013  15:16:00     -238.636     -204.988       -4.739      137.869      154.292       71.631    19007.794    23805.995     5131.040        7.346        2.397      314.591       62.922        0.040      347.632       26.738      856.910
08/24/2013  15:17:00     -370.945     -206.697      -12.533      179.155      136.599       76.000    32096.593    18659.211     5775.985       11.850        2.827      424.646       83.970        0.039      347.818       27.059      856.885
08/24/2013  15:18:00     -221.272     -121.776       -4.468      159.224      127.348       74.540    25352.299    16217.388     5556.198        5.546        2.356      252.568       76.579        0.092      347.860       27.131      856.863
08/24/2013  15:19:00     -386.896     -142.080       -5.948      207.749      124.894       80.293    43159.708    15598.565     6446.889       11.754        3.260      412.159       83.050        0.041      347.775       26.986      856.860
08/24/2013  15:20:00     -438.564      -19.754      -42.058      178.442      159.611       76.786    31841.401    25475.605     5896.069       12.884        3.161      439.008       85.370        0.038      347.730       26.908      856.816
08/24/2013  15:21:00     -357.450      -81.785      -14.368      142.271      123.674       70.923    20241.093    15295.152     5030.067        8.761        2.028      366.687       78.578        0.046      347.978       27.336      856.814
08/24/2013  15:22:00     -336.317      -80.981      -14.446      166.010      127.540       62.703    27559.239    16266.413     3931.718        8.381        2.388      345.929       73.720        0.045      348.121       27.582      856.827
08/24/2013  15:23:00     -393.498     -184.908      -20.487      135.250      137.722       71.871    18292.513    18967.413     5165.428       11.593        2.121      434.777       67.148        0.024      347.753       26.948      856.830
08/24/2013  15:24:00     -360.806     -174.460       -2.189      201.582      160.308       90.733    40635.302    25698.591     8232.517       11.758        3.728      400.771      108.217        0.073      347.794       27.019      856.814
08/24/2013  15:25:00     -441.932     -193.026      -29.258      210.973      190.824       92.990    44509.534    36413.668     8647.207       16.148        4.479      482.248       99.882        0.043      347.691       26.841      856.822
08/24/2013  15:26:00     -508.921      -66.136      -19.420      196.512      165.260       91.034    38616.779    27310.892     8287.212       16.897        3.711      513.200       93.716        0.033      347.662       26.789      856.841
08/24/2013  15:27:00     -290.981     -152.752       -6.937      234.234      149.698       91.154    54865.720    22409.402     8309.017        9.680        4.279      328.638      114.428        0.121      347.804       27.036      856.826
08/24/2013  15:28:00     -351.858     -196.320       -4.793      189.861      160.438       82.380    36047.098    25740.428     6786.532       11.546        3.429      402.922       89.584        0.049      347.685       26.830      856.829
08/24/2013  15:29:00     -447.835     -270.132      -12.533      217.537      198.031       89.553    47322.140    39216.331     8019.796       18.410        4.728      522.998       95.510        0.033      347.565       26.623      856.830
08/24/2013  15:30:00     -176.885      -80.066       14.700      148.033      136.093       74.096    21913.664    18521.409     5490.213        4.191        2.296      194.162       83.165        0.183      347.859       27.132      856.847
08/24/2013  15:31:00     -240.111     -138.415       -6.356      136.724      115.154       59.632    18693.360    13260.557     3556.019        5.617        1.775      277.149       69.796        0.063      348.008       27.388      856.841
08/24/2013  15:32:00     -250.843       21.602       -2.078      137.073       98.753       58.673    18789.061     9752.211     3442.540        4.768        1.599      251.771       48.705        0.037      348.157       27.646      856.839
08/24/2013  15:33:00     -449.504      -33.509      -23.509      141.356      145.506       75.015    19981.531    21171.921     5627.223       12.525        2.339      450.751       68.490        0.023      347.927       27.246      856.814
08/24/2013  15:34:00     -282.499     -160.387        6.345      196.223      133.120       87.518    38503.477    17720.911     7659.353        8.471        3.194      324.854       93.505        0.083      347.979       27.337      856.817
08/24/2013  15:35:00     -324.012     -223.195       -4.036      211.423      118.220       89.414    44699.493    13975.972     7994.933       11.073        3.334      393.446      112.794        0.082      347.740       26.925      856.797
08/24/2013  15:36:00     -331.853      -48.836       -4.934      218.494      138.789       75.406    47739.841    19262.360     5686.021        9.260        3.634      335.427       83.242        0.062      347.892       27.186      856.796
08/24/2013  15:37:00     -486.162     -117.859      -13.293      190.341      102.443       76.518    36229.543    10494.608     5854.959       15.149        2.629      500.244       90.134        0.032      347.639       26.751      856.764
08/24/2013  15:38:00     -371.828      -85.317      -23.702      146.932      140.232       63.422    21589.127    19664.994     4022.379        9.568        2.264      381.490       64.254        0.028      347.900       27.202      856.749
08/24/2013  15:39:00     -383.077     -167.929       -9.164      211.989      177.917       89.070    44939.274    31654.514     7933.487       12.976        4.226      418.268      103.307        0.061      347.837       27.091      856.700
08/24/2013  15:40:00     -253.817     -210.711       -6.211      178.375      125.633       81.786    31817.502    15783.765     6688.957        8.156        2.715      329.882       95.739        0.084      347.879       27.164      856.700
08/24/2013  15:41:00     -171.490      -73.544       16.918      142.655      120.717       67.705    20350.346    14572.549     4583.915        3.730        1.975      186.595       69.261        0.138      348.022       27.411      856.691
08/24/2013  15:42:00     -202.450      -40.046        2.252      153.138       92.674       65.302    23451.228     8588.458     4264.316        3.944        1.815      206.373       76.455        0.137      348.068       27.493      856.664
08/24/2013  15:43:00     -123.930      -47.459       18.815      155.281      128.067       77.591    24112.251    16401.110     6020.390        3.224        2.327      132.707       86.866        0.428      348.142       27.622      856.630
08/24/2013  15:44:00     -437.097     -143.201      -30.423      236.525      191.082       79.608    55944.168    36512.177     6337.392       15.562        4.940      459.956       94.879        0.043      347.802       27.032      856.594
08/24/2013  15:45:00     -330.981      -92.009      -25.718      182.769      109.885       88.384    33404.661    12074.604     7811.782        8.597        2.665      343.531      108.722        0.100      347.962       27.308      856.603
08/24/2013  15:46:00     -432.297     -187.509      -33.276      204.161      119.043       77.906    41681.751    14171.161     6069.350       14.252        3.096      471.212       88.436        0.035      347.998       27.370      856.634
08/24/2013  15:47:00     -221.734     -132.318       13.281      246.960      191.801       93.225    60989.427    36787.625     8690.850        8.664        5.323      258.213      111.790        0.187      347.915       27.226      856.621
08/24/2013  15:48:00     -389.450     -205.905      -13.357      229.919      136.056       78.501    52862.925    18511.132     6162.334       13.588        3.877      440.532       91.024        0.043      347.815       27.054      856.615
08/24/2013  15:49:00     -283.472     -131.695      -21.507      130.258      130.205       59.247    16967.178    16953.466     3510.213        6.779        1.872      312.570       60.394        0.037      347.887       27.178      856.632
08/24/2013  15:50:00     -312.477      -66.221       -4.229      155.969      165.394       77.830    24326.453    27355.246     6057.490        7.988        2.887      319.417       72.654        0.052      347.995       27.364      856.621
08/24/2013  15:51:00     -276.120      -21.265        0.967      149.702      134.045       69.671    22410.599    17968.152     4854.097        6.096        2.262      276.938       67.291        0.059      348.059       27.475      856.617
08/24/2013  15:52:00     -338.417      -47.502       -8.731      235.402      132.932       84.174    55414.041    17670.924     7085.254        9.850        4.009      341.734       97.786        0.082      348.090       27.530      856.628
08/24/2013  15:53:00     -478.202      -26.796      -16.940      192.478      112.832       83.150    37047.709    12731.093     6913.948       14.318        2.835      478.952       90.058        0.035      347.838       27.093      856.630
08/24/2013  15:54:00     -384.935      -81.389       -5.267      194.605      123.924       76.929    37871.155    15357.089     5918.081       10.698        2.957      393.446       82.197        0.044      347.789       27.007      856.628
08/24/2013  15:55:00     -329.656     -103.985       -4.893      148.309      174.558       77.199    21995.523    30470.591     5959.709        8.896        2.921      345.667       76.103        0.048      347.849       27.112      856.616
08/24/2013  15:56:00     -169.004     -149.185       -7.445      131.377      177.446       62.712    17260.001    31487.149     3932.734        5.177        2.634      225.430       67.281        0.089      347.896       27.194      856.622
08/24/2013  15:57:00     -334.360     -223.891       -8.547      234.532      210.416      105.142    55005.190    44274.703    11054.745       13.614        5.517      402.397      111.726        0.077      347.832       27.083      856.615
08/24/2013  15:58:00     -445.878     -314.805       -0.214      234.120      178.009      113.301    54812.169    31687.294    12837.150       19.860        4.967      545.810      114.258        0.044      347.576       26.641      856.600
08/24/2013  15:59:00     -431.278     -255.998       -2.779      250.546      180.633      100.961    62773.179    32628.130    10193.215       17.855        5.280      501.533      120.033        0.057      347.756       26.952      856.590
08/24/2013  16:00:00     -395.252      -73.786       -9.091      148.750      144.222       65.754    22126.416    20799.842     4323.563       10.449        2.362      402.080       73.340        0.033      347.898       27.196      856.614
08/24/2013  16:01:00     -425.033      -89.830        2.865      262.295      165.202      110.617    68798.853    27291.797    12236.185       14.851        5.416      434.422      136.602        0.099      347.786       27.004      856.592
08/24/2013  16:02:00     -380.436     -180.365       -8.409      145.022      124.432       82.768    21031.263    15483.345     6850.555       11.034        2.168      421.027       81.472        0.037      347.795       27.019      856.584
08/24/2013  16:03:00     -153.293      -38.973        9.240      156.731      117.128       64.817    24564.658    13719.035     4201.189        3.379        2.124      158.170       81.551        0.266      348.086       27.524      856.579
08/24/2013  16:04:00     -189.730      -33.470       18.876      193.552      143.102       88.752    37462.259    20478.215     7876.924        5.163        3.291      192.659       98.935        0.264      348.128       27.595      856.561
08/24/2013  16:05:00     -484.632      -56.290      -14.784      239.669      182.847       76.868    57441.023    33433.177     5908.731       16.750        4.839      487.890       85.131        0.030      347.791       27.014      856.567
08/24/2013  16:06:00     -330.129     -161.430      -18.928      231.506      165.242       92.138    53595.086    27304.755     8489.381       11.238        4.469      367.485      113.610        0.096      347.891       27.186      856.565
08/24/2013  16:07:00     -384.616     -239.364      -20.157      205.873      162.057       90.557    42383.531    26262.459     8200.630       14.122        3.842      453.017      108.294        0.057      347.750       26.942      856.565
08/24/2013  16:08:00     -427.018      -38.353      -16.811      193.754      142.262       74.547    37540.586    20238.457     5557.230       12.370        3.167      428.737       90.020        0.044      347.834       27.086      856.570
08/24/2013  16:09:00     -444.037      -79.665      -16.194      196.575      162.034       99.028    38641.696    26254.883     9806.476       13.923        3.735      451.126      104.079        0.053      347.760       26.960      856.567
08/24/2013  16:10:00     -386.184     -278.129        3.449      267.569      222.405      123.071    71593.154    49464.028    15146.463       18.133        6.810      475.913      146.335        0.095      347.686       26.831      856.531
08/24/2013  16:11:00     -335.471      -70.838       -0.052      216.724      179.241      106.234    46969.289    32127.298    11285.557       10.395        4.519      342.869      130.129        0.144      347.693       26.845      856.529
08/24/2013  16:12:00     -386.428      -89.146      -16.897      278.864      127.390       91.189    77765.078    16228.088     8315.485       12.991        5.115      396.578      124.575        0.099      347.777       26.990      856.519
08/24/2013  16:13:00     -269.445     -158.439       -3.741      172.702      159.579       82.051    29825.832    25465.401     6732.349        7.986        3.101      312.576       74.991        0.058      347.696       26.850      856.512
08/24/2013  16:14:00     -257.711       38.894        1.678      184.201       85.937       66.038    33929.890     7385.093     4361.073        5.679        2.284      260.629       87.700        0.113      347.822       27.066      856.512
08/24/2013  16:15:00     -280.233     -146.543      -18.062      170.137      178.787       98.456    28946.543    31964.641     9693.488        8.545        3.530      316.236       96.785        0.094      347.734       26.914      856.480
08/24/2013  16:16:00     -391.453     -153.161      -29.439      193.626      174.138       80.869    37491.165    30324.095     6539.826       12.594        3.718      420.349       91.233        0.047      347.765       26.968      856.482
08/24/2013  16:17:00     -359.464      -74.888        2.091      227.517      172.236       80.685    51763.817    29665.391     6510.023       11.137        4.397      367.182       93.426        0.065      347.866       27.143      856.500
08/24/2013  16:18:00     -441.540     -250.377       -4.095      260.961      177.344      101.994    68100.661    31450.847    10402.832       18.379        5.498      507.589      109.445        0.046      347.673       26.808      856.472
08/24/2013  16:19:00     -318.894     -143.416        2.922      228.914      179.977       92.366    52401.512    32391.840     8531.403       10.778        4.666      349.659      117.539        0.113      347.807       27.040      856.501
08/24/2013  16:20:00     -299.418     -194.702      -10.698      208.092      194.808      101.502    43302.334    37950.332    10302.581       10.960        4.578      357.155      114.304        0.102      347.819       27.061      856.514
08/24/2013  16:21:00     -398.687     -146.061      -27.379      192.840      180.427       92.911    37187.349    32553.899     8632.416       12.969        3.919      424.601       90.367        0.045      347.702       26.860      856.494
08/24/2013  16:22:00     -306.433     -202.333      -12.785      185.790      148.474       82.085    34517.785    22044.560     6737.959        9.914        3.165      367.205       95.098        0.067      347.757       26.954      856.503
08/24/2013  16:23:00     -184.319      -78.802       25.680      212.581      136.009       81.829    45190.697    18498.379     6695.979        5.560        3.519      200.458       98.744        0.243      347.856       27.126      856.504
08/24/2013  16:24:00     -345.501      -83.734       -5.953      151.011      155.779       71.283    22804.453    24267.147     5081.324        8.928        2.608      355.503       64.438        0.033      347.843       27.102      856.491
08/24/2013  16:25:00     -322.567      -16.154       -7.008      137.626      142.395       77.156    18940.796    20276.445     5953.095        7.476        2.259      322.971       79.377        0.060      347.827       27.074      856.486
08/24/2013  16:26:00     -284.565     -134.538       -1.557      204.752      160.524       85.711    41923.209    25768.085     7346.374        8.704        3.752      314.766       84.513        0.072      347.696       26.850      856.459
08/24/2013  16:27:00     -528.803      -46.864      -23.077      244.149      224.438       86.033    59608.621    50372.410     7401.713       19.985        5.869      530.875      104.860        0.039      347.651       26.771      856.422
08/24/2013  16:28:00     -377.922       -9.490      -29.509      192.794      164.365       79.712    37169.445    27015.789     6354.012       10.715        3.527      378.041       87.237        0.053      347.657       26.782      856.430
08/24/2013  16:29:00     -392.191      -92.588      -31.181      339.833      150.324       84.842   115486.229    22597.277     7198.199       15.429        7.264      402.972      122.000        0.092      347.680       26.821      856.407
08/24/2013  16:30:00     -410.263      -96.859       -1.923      274.628      156.386       98.669    75420.789    24456.618     9735.618       14.364        5.481      421.542      123.774        0.086      347.761       26.961      856.367
08/24/2013  16:31:00     -557.556     -168.685      -27.744      233.359      158.700       87.637    54456.209    25185.747     7680.187       21.369        4.366      582.515       91.532        0.025      347.630       26.734      856.377
08/24/2013  16:32:00     -433.796      -62.600      -30.975      209.420      134.246       80.070    43856.574    18021.987     6411.158       13.066        3.414      438.289      103.926        0.056      347.631       26.738      856.361
08/24/2013  16:33:00     -366.198      -60.467      -23.464      201.520      116.008       70.220    40610.224    13457.760     4930.878        9.864        2.950      371.157       89.349        0.058      347.780       26.994      856.380
08/24/2013  16:34:00     -412.272     -213.526        5.680      242.342      209.166      102.937    58729.624    43750.274    10595.998       16.431        5.654      464.286      123.066        0.070      347.639       26.751      856.344
08/24/2013  16:35:00     -361.458     -219.561       -1.151      167.690      123.074       74.369    28120.089    15147.145     5530.754       11.382        2.440      422.917       77.186        0.033      347.754       26.948      856.327
08/24/2013  16:36:00     -230.918     -167.768        6.756      176.170      108.352       68.704    31035.840    11740.261     4720.180        6.450        2.375      285.429       72.596        0.065      347.862       27.135      856.330
08/24/2013  16:37:00     -555.782     -215.690      -11.078      250.922      184.423       90.939    62961.735    34011.663     8269.819       23.037        5.262      596.167      101.691        0.029      347.711       26.876      856.291
08/24/2013  16:38:00     -419.953     -277.065       -3.565      216.328      185.227      105.656    46797.646    34308.896    11163.163       17.269        4.613      503.116      108.833        0.047      347.727       26.902      856.333
08/24/2013  16:39:00     -492.578      -16.968       -8.257      356.368      195.663      106.988   126997.969    38284.202    11446.333       20.982        8.836      492.870      148.242        0.090      347.647       26.764      856.367
08/24/2013  16:40:00     -469.431     -286.247       -9.022      212.031      170.843      108.384    44957.062    29187.277    11747.003       19.412        4.295      549.821      121.220        0.049      347.572       26.636      856.366
08/24/2013  16:41:00     -586.455     -355.109      -35.054      246.664      178.628      106.577    60843.066    31907.861    11358.588       28.766        5.205      685.588      125.590        0.034      347.460       26.441      856.367
08/24/2013  16:42:00     -493.973     -144.340      -16.547      205.148      208.147       99.804    42085.630    43325.194     9960.759       18.023        4.769      514.630      111.468        0.047      347.492       26.498      856.391
08/24/2013  16:43:00     -318.862     -184.932      -12.198      233.548      187.884       92.393    54544.807    35300.220     8536.468       11.718        4.919      368.609       84.702        0.053      347.578       26.646      856.404
08/24/2013  16:44:00     -238.690     -144.091       -3.446      163.009      123.485       62.151    26571.867    15248.664     3862.760        6.171        2.284      278.811       65.501        0.055      347.722       26.894      856.418
08/24/2013  16:45:00     -317.685     -131.715       -5.712      230.766      175.073      100.083    53252.941    30650.684    10016.570       10.609        4.696      343.908      102.198        0.088      347.677       26.816      856.429
08/24/2013  16:46:00     -423.524     -175.796      -29.706      196.621      149.096       84.842    38659.836    22229.546     7198.227       13.961        3.404      458.560       82.533        0.032      347.638       26.747      856.452
08/24/2013  16:47:00     -333.164     -111.296        2.989      236.596      243.763      107.720    55977.709    59420.385    11603.554       12.517        6.350      351.262      136.506        0.151      347.513       26.533      856.433
08/24/2013  16:48:00     -329.262     -125.370       -4.855      166.582      157.508       81.364    27749.548    24808.722     6620.070        9.165        2.959      352.323       87.217        0.061      347.542       26.583      856.447
08/24/2013  16:49:00     -352.648     -151.200       -4.857      183.473      182.518       73.429    33662.434    33312.753     5391.841       10.979        3.618      383.695       93.863        0.060      347.550       26.597      856.426
08/24/2013  16:50:00     -369.769     -177.192      -10.574      194.404      139.567       86.545    37793.109    19478.903     7490.115       11.649        3.238      410.032       79.693        0.038      347.531       26.565      856.377
08/24/2013  16:51:00     -451.027     -274.561      -33.278      190.473      167.955       83.904    36279.838    28208.825     7039.845       17.571        3.576      528.024       87.248        0.027      347.512       26.532      856.378
08/24/2013  16:52:00     -375.545     -128.090       -9.734      246.598      147.184       97.361    60810.559    21663.075     9479.207       12.473        4.598      396.788      125.084        0.099      347.545       26.589      856.396
08/24/2013  16:53:00     -416.885     -164.333       -6.843      225.713      172.564       91.178    50946.151    29778.429     8313.500       14.492        4.452      448.106      108.977        0.059      347.462       26.445      856.365
08/24/2013  16:54:00     -437.001     -113.259      -10.202      190.447      153.273       68.056    36269.918    23492.546     4631.588       13.414        3.220      451.440       67.302        0.022      347.527       26.557      856.363
08/24/2013  16:55:00     -427.754     -156.032       -2.973      196.928      188.816       95.914    38780.616    35651.499     9199.474       14.546        4.182      455.323      103.944        0.052      347.555       26.606      856.366
08/24/2013  16:56:00     -306.535     -103.177        5.981      210.139      175.999       87.603    44158.444    30975.598     7674.308        9.371        4.140      323.433      103.059        0.102      347.597       26.677      856.338
08/24/2013  16:57:00     -360.313      -47.441      -20.355      179.216      143.651       77.828    32118.316    20635.558     6057.274        9.564        2.941      363.423       80.018        0.048      347.642       26.754      856.346
08/24/2013  16:58:00     -325.574      -11.495       -7.473      218.109      112.022       81.043    47571.750    12549.014     6568.000        8.642        3.334      325.777       88.739        0.074      347.715       26.883      856.364
08/24/2013  16:59:00     -394.202      -27.553      -17.668      153.003      145.558       75.013    23409.833    21187.078     5626.892       10.334        2.511      395.164       78.064        0.039      347.658       26.783      856.361
08/24/2013  17:00:00     -477.091     -133.128      -17.876      185.118      189.852       92.042    34268.656    36043.668     8471.818       16.221        3.939      495.317       92.031        0.035      347.563       26.619      856.363
08/24/2013  17:01:00     -297.467     -193.254       -1.178      198.973      157.070       93.650    39590.258    24671.013     8770.360        9.942        3.652      354.730       93.984        0.070      347.565       26.624      856.365
08/24/2013  17:02:00     -189.754      -89.639       27.058      212.281      176.312       92.293    45063.066    31085.758     8518.019        6.470        4.233      209.861      111.103        0.280      347.642       26.757      856.373
08/24/2013  17:03:00     -386.255     -144.450       -4.729      245.238      169.176      105.336    60141.646    28620.673    11095.663       13.495        4.993      412.382      112.045        0.074      347.462       26.446      856.336
08/24/2013  17:04:00     -573.991     -234.963      -22.629      170.987      185.348       98.741    29236.595    34353.915     9749.701       22.925        3.667      620.221       98.309        0.025      347.390       26.319      856.313
08/24/2013  17:05:00     -416.946     -161.631      -20.466      130.127      149.110       75.066    16932.994    22233.690     5634.830       12.259        2.240      447.178       72.491        0.026      347.458       26.437      856.312
08/24/2013  17:06:00     -355.536      -85.390       -3.946      233.146      186.999       99.083    54356.921    34968.800     9817.471       11.641        4.957      365.646       80.592        0.049      347.654       26.776      856.311
08/24/2013  17:07:00     -376.527     -216.903       -9.926      253.397      218.430      111.793    64210.119    47711.586    12497.574       15.664        6.221      434.534      118.933        0.075      347.519       26.543      856.320
